<?xml version="1.0" encoding="utf-8"?>
<gpx xmlns:xsi="http://www.w3.org/2001/XMLSchema-instance" xmlns:xsd="http://www.w3.org/2001/XMLSchema" version="1.1" creator="Shapelink.com" xmlns="http://www.topografix.com/GPX/1/1" xmlns:gpxtpx="http://www.garmin.com/xmlschemas/TrackPointExtension/v1">
  <metadata>
    <name>Gåing 1.64 km, 2013-05-13</name>
    <desc></desc>
    <author><name>Mikael Blom</name></author> 
    <time>2013-05-13T18:31:53Z</time>
  </metadata>
  <trk>
    <name>Gåing 1.64 km, 2013-05-13</name>
    <trkseg>
      <trkpt lat="59.9692286" lon="17.7555002">
        <ele>25.6123</ele>
        <time>2013-05-13T18:31:53Z</time>
      </trkpt>
      <trkpt lat="59.9692242" lon="17.7554868">
        <ele>26.0929</ele>
        <time>2013-05-13T18:31:54Z</time>
      </trkpt>
      <trkpt lat="59.9692182" lon="17.7554692">
        <ele>26.0929</ele>
        <time>2013-05-13T18:31:55Z</time>
      </trkpt>
      <trkpt lat="59.9692203" lon="17.7554541">
        <ele>26.0929</ele>
        <time>2013-05-13T18:31:56Z</time>
      </trkpt>
      <trkpt lat="59.969227" lon="17.7554365">
        <ele>26.5736</ele>
        <time>2013-05-13T18:31:57Z</time>
      </trkpt>
      <trkpt lat="59.9692372" lon="17.7554189">
        <ele>26.0929</ele>
        <time>2013-05-13T18:31:58Z</time>
      </trkpt>
      <trkpt lat="59.9692488" lon="17.7554002">
        <ele>25.1317</ele>
        <time>2013-05-13T18:31:59Z</time>
      </trkpt>
      <trkpt lat="59.9692617" lon="17.7553811">
        <ele>24.651</ele>
        <time>2013-05-13T18:32:00Z</time>
      </trkpt>
      <trkpt lat="59.9692739" lon="17.7553639">
        <ele>24.651</ele>
        <time>2013-05-13T18:32:01Z</time>
      </trkpt>
      <trkpt lat="59.9692865" lon="17.7553443">
        <ele>24.1703</ele>
        <time>2013-05-13T18:32:02Z</time>
      </trkpt>
      <trkpt lat="59.9692986" lon="17.7553257">
        <ele>24.651</ele>
        <time>2013-05-13T18:32:03Z</time>
      </trkpt>
      <trkpt lat="59.9693067" lon="17.7553034">
        <ele>24.651</ele>
        <time>2013-05-13T18:32:04Z</time>
      </trkpt>
      <trkpt lat="59.9693169" lon="17.7552857">
        <ele>24.651</ele>
        <time>2013-05-13T18:32:05Z</time>
      </trkpt>
      <trkpt lat="59.9693295" lon="17.7552694">
        <ele>25.1317</ele>
        <time>2013-05-13T18:32:06Z</time>
      </trkpt>
      <trkpt lat="59.9693383" lon="17.7552462">
        <ele>25.1317</ele>
        <time>2013-05-13T18:32:07Z</time>
      </trkpt>
      <trkpt lat="59.9693457" lon="17.7552251">
        <ele>24.651</ele>
        <time>2013-05-13T18:32:08Z</time>
      </trkpt>
      <trkpt lat="59.9693535" lon="17.7552048">
        <ele>24.651</ele>
        <time>2013-05-13T18:32:09Z</time>
      </trkpt>
      <trkpt lat="59.9693608" lon="17.7551852">
        <ele>25.1317</ele>
        <time>2013-05-13T18:32:10Z</time>
      </trkpt>
      <trkpt lat="59.9693727" lon="17.755165">
        <ele>24.651</ele>
        <time>2013-05-13T18:32:11Z</time>
      </trkpt>
      <trkpt lat="59.9693856" lon="17.7551448">
        <ele>24.651</ele>
        <time>2013-05-13T18:32:12Z</time>
      </trkpt>
      <trkpt lat="59.9693947" lon="17.7551266">
        <ele>24.651</ele>
        <time>2013-05-13T18:32:13Z</time>
      </trkpt>
      <trkpt lat="59.9694072" lon="17.7551074">
        <ele>24.651</ele>
        <time>2013-05-13T18:32:14Z</time>
      </trkpt>
      <trkpt lat="59.969419" lon="17.755083">
        <ele>24.651</ele>
        <time>2013-05-13T18:32:15Z</time>
      </trkpt>
      <trkpt lat="59.9694326" lon="17.7550639">
        <ele>24.651</ele>
        <time>2013-05-13T18:32:16Z</time>
      </trkpt>
      <trkpt lat="59.9694445" lon="17.7550467">
        <ele>24.651</ele>
        <time>2013-05-13T18:32:17Z</time>
      </trkpt>
      <trkpt lat="59.9694549" lon="17.7550308">
        <ele>24.651</ele>
        <time>2013-05-13T18:32:18Z</time>
      </trkpt>
      <trkpt lat="59.9694632" lon="17.7550104">
        <ele>24.651</ele>
        <time>2013-05-13T18:32:19Z</time>
      </trkpt>
      <trkpt lat="59.9694732" lon="17.7549873">
        <ele>24.651</ele>
        <time>2013-05-13T18:32:20Z</time>
      </trkpt>
      <trkpt lat="59.9694885" lon="17.7549623">
        <ele>25.1317</ele>
        <time>2013-05-13T18:32:21Z</time>
      </trkpt>
      <trkpt lat="59.9694983" lon="17.7549419">
        <ele>25.6123</ele>
        <time>2013-05-13T18:32:22Z</time>
      </trkpt>
      <trkpt lat="59.9695021" lon="17.754917">
        <ele>25.6123</ele>
        <time>2013-05-13T18:32:23Z</time>
      </trkpt>
      <trkpt lat="59.969511" lon="17.7548906">
        <ele>26.0929</ele>
        <time>2013-05-13T18:32:24Z</time>
      </trkpt>
      <trkpt lat="59.9695239" lon="17.7548659">
        <ele>26.0929</ele>
        <time>2013-05-13T18:32:25Z</time>
      </trkpt>
      <trkpt lat="59.9695347" lon="17.7548465">
        <ele>26.0929</ele>
        <time>2013-05-13T18:32:26Z</time>
      </trkpt>
      <trkpt lat="59.9695444" lon="17.7548273">
        <ele>26.5736</ele>
        <time>2013-05-13T18:32:27Z</time>
      </trkpt>
      <trkpt lat="59.9695544" lon="17.7548066">
        <ele>27.0543</ele>
        <time>2013-05-13T18:32:28Z</time>
      </trkpt>
      <trkpt lat="59.969564" lon="17.7547858">
        <ele>27.0543</ele>
        <time>2013-05-13T18:32:29Z</time>
      </trkpt>
      <trkpt lat="59.969575" lon="17.7547662">
        <ele>27.5349</ele>
        <time>2013-05-13T18:32:30Z</time>
      </trkpt>
      <trkpt lat="59.9695844" lon="17.7547457">
        <ele>27.5349</ele>
        <time>2013-05-13T18:32:31Z</time>
      </trkpt>
      <trkpt lat="59.9695933" lon="17.7547199">
        <ele>27.5349</ele>
        <time>2013-05-13T18:32:32Z</time>
      </trkpt>
      <trkpt lat="59.9696036" lon="17.7546977">
        <ele>28.0155</ele>
        <time>2013-05-13T18:32:33Z</time>
      </trkpt>
      <trkpt lat="59.9696128" lon="17.754676">
        <ele>28.0155</ele>
        <time>2013-05-13T18:32:34Z</time>
      </trkpt>
      <trkpt lat="59.9696222" lon="17.7546553">
        <ele>28.0155</ele>
        <time>2013-05-13T18:32:35Z</time>
      </trkpt>
      <trkpt lat="59.9696327" lon="17.754636">
        <ele>28.0155</ele>
        <time>2013-05-13T18:32:36Z</time>
      </trkpt>
      <trkpt lat="59.9696439" lon="17.7546201">
        <ele>28.4962</ele>
        <time>2013-05-13T18:32:37Z</time>
      </trkpt>
      <trkpt lat="59.9696523" lon="17.7546044">
        <ele>28.4962</ele>
        <time>2013-05-13T18:32:38Z</time>
      </trkpt>
      <trkpt lat="59.9696604" lon="17.7545844">
        <ele>28.4962</ele>
        <time>2013-05-13T18:32:39Z</time>
      </trkpt>
      <trkpt lat="59.9696704" lon="17.7545632">
        <ele>28.4962</ele>
        <time>2013-05-13T18:32:40Z</time>
      </trkpt>
      <trkpt lat="59.9696802" lon="17.7545392">
        <ele>28.4962</ele>
        <time>2013-05-13T18:32:41Z</time>
      </trkpt>
      <trkpt lat="59.9696885" lon="17.754517">
        <ele>28.4962</ele>
        <time>2013-05-13T18:32:42Z</time>
      </trkpt>
      <trkpt lat="59.9696978" lon="17.7544983">
        <ele>28.4962</ele>
        <time>2013-05-13T18:32:43Z</time>
      </trkpt>
      <trkpt lat="59.9697058" lon="17.7544806">
        <ele>28.4962</ele>
        <time>2013-05-13T18:32:44Z</time>
      </trkpt>
      <trkpt lat="59.9697179" lon="17.7544656">
        <ele>28.9769</ele>
        <time>2013-05-13T18:32:45Z</time>
      </trkpt>
      <trkpt lat="59.9697295" lon="17.7544471">
        <ele>28.9769</ele>
        <time>2013-05-13T18:32:46Z</time>
      </trkpt>
      <trkpt lat="59.9697424" lon="17.754423">
        <ele>28.9769</ele>
        <time>2013-05-13T18:32:47Z</time>
      </trkpt>
      <trkpt lat="59.9697531" lon="17.7543989">
        <ele>28.9769</ele>
        <time>2013-05-13T18:32:48Z</time>
      </trkpt>
      <trkpt lat="59.9697617" lon="17.7543772">
        <ele>28.9769</ele>
        <time>2013-05-13T18:32:49Z</time>
      </trkpt>
      <trkpt lat="59.9697699" lon="17.7543564">
        <ele>28.9769</ele>
        <time>2013-05-13T18:32:50Z</time>
      </trkpt>
      <trkpt lat="59.9697759" lon="17.7543372">
        <ele>28.9769</ele>
        <time>2013-05-13T18:32:51Z</time>
      </trkpt>
      <trkpt lat="59.9697821" lon="17.7543177">
        <ele>29.4575</ele>
        <time>2013-05-13T18:32:52Z</time>
      </trkpt>
      <trkpt lat="59.9697914" lon="17.7542957">
        <ele>28.9769</ele>
        <time>2013-05-13T18:32:53Z</time>
      </trkpt>
      <trkpt lat="59.9698025" lon="17.7542743">
        <ele>28.9769</ele>
        <time>2013-05-13T18:32:54Z</time>
      </trkpt>
      <trkpt lat="59.9698129" lon="17.7542514">
        <ele>28.9769</ele>
        <time>2013-05-13T18:32:55Z</time>
      </trkpt>
      <trkpt lat="59.9698201" lon="17.75423">
        <ele>28.9769</ele>
        <time>2013-05-13T18:32:56Z</time>
      </trkpt>
      <trkpt lat="59.9698304" lon="17.7542062">
        <ele>29.4575</ele>
        <time>2013-05-13T18:32:57Z</time>
      </trkpt>
      <trkpt lat="59.9698398" lon="17.7541822">
        <ele>28.9769</ele>
        <time>2013-05-13T18:32:58Z</time>
      </trkpt>
      <trkpt lat="59.9698501" lon="17.754161">
        <ele>28.9769</ele>
        <time>2013-05-13T18:32:59Z</time>
      </trkpt>
      <trkpt lat="59.9698609" lon="17.75414">
        <ele>28.9769</ele>
        <time>2013-05-13T18:33:00Z</time>
      </trkpt>
      <trkpt lat="59.9698699" lon="17.7541221">
        <ele>28.4962</ele>
        <time>2013-05-13T18:33:01Z</time>
      </trkpt>
      <trkpt lat="59.969877" lon="17.7541041">
        <ele>28.9769</ele>
        <time>2013-05-13T18:33:02Z</time>
      </trkpt>
      <trkpt lat="59.9698864" lon="17.754086">
        <ele>28.4962</ele>
        <time>2013-05-13T18:33:03Z</time>
      </trkpt>
      <trkpt lat="59.9698969" lon="17.7540651">
        <ele>28.4962</ele>
        <time>2013-05-13T18:33:04Z</time>
      </trkpt>
      <trkpt lat="59.9699064" lon="17.7540443">
        <ele>28.4962</ele>
        <time>2013-05-13T18:33:05Z</time>
      </trkpt>
      <trkpt lat="59.9699154" lon="17.7540212">
        <ele>28.4962</ele>
        <time>2013-05-13T18:33:06Z</time>
      </trkpt>
      <trkpt lat="59.9699248" lon="17.753999">
        <ele>28.4962</ele>
        <time>2013-05-13T18:33:07Z</time>
      </trkpt>
      <trkpt lat="59.9699346" lon="17.7539783">
        <ele>28.4962</ele>
        <time>2013-05-13T18:33:08Z</time>
      </trkpt>
      <trkpt lat="59.969945" lon="17.7539565">
        <ele>28.4962</ele>
        <time>2013-05-13T18:33:09Z</time>
      </trkpt>
      <trkpt lat="59.9699541" lon="17.753935">
        <ele>28.4962</ele>
        <time>2013-05-13T18:33:10Z</time>
      </trkpt>
      <trkpt lat="59.9699621" lon="17.753914">
        <ele>28.4962</ele>
        <time>2013-05-13T18:33:11Z</time>
      </trkpt>
      <trkpt lat="59.9699709" lon="17.7538919">
        <ele>28.4962</ele>
        <time>2013-05-13T18:33:12Z</time>
      </trkpt>
      <trkpt lat="59.969981" lon="17.7538689">
        <ele>28.4962</ele>
        <time>2013-05-13T18:33:13Z</time>
      </trkpt>
      <trkpt lat="59.9699907" lon="17.7538466">
        <ele>28.4962</ele>
        <time>2013-05-13T18:33:14Z</time>
      </trkpt>
      <trkpt lat="59.9699999" lon="17.7538261">
        <ele>28.4962</ele>
        <time>2013-05-13T18:33:15Z</time>
      </trkpt>
      <trkpt lat="59.9700097" lon="17.7538056">
        <ele>28.0155</ele>
        <time>2013-05-13T18:33:16Z</time>
      </trkpt>
      <trkpt lat="59.9700185" lon="17.7537844">
        <ele>28.0155</ele>
        <time>2013-05-13T18:33:17Z</time>
      </trkpt>
      <trkpt lat="59.9700273" lon="17.7537642">
        <ele>28.0155</ele>
        <time>2013-05-13T18:33:18Z</time>
      </trkpt>
      <trkpt lat="59.9700367" lon="17.7537439">
        <ele>28.0155</ele>
        <time>2013-05-13T18:33:19Z</time>
      </trkpt>
      <trkpt lat="59.9700465" lon="17.7537233">
        <ele>28.0155</ele>
        <time>2013-05-13T18:33:20Z</time>
      </trkpt>
      <trkpt lat="59.9700568" lon="17.7537026">
        <ele>28.0155</ele>
        <time>2013-05-13T18:33:21Z</time>
      </trkpt>
      <trkpt lat="59.9700646" lon="17.7536798">
        <ele>27.5349</ele>
        <time>2013-05-13T18:33:22Z</time>
      </trkpt>
      <trkpt lat="59.9700719" lon="17.7536551">
        <ele>27.5349</ele>
        <time>2013-05-13T18:33:23Z</time>
      </trkpt>
      <trkpt lat="59.9700797" lon="17.7536326">
        <ele>27.5349</ele>
        <time>2013-05-13T18:33:24Z</time>
      </trkpt>
      <trkpt lat="59.9700874" lon="17.7536099">
        <ele>27.5349</ele>
        <time>2013-05-13T18:33:25Z</time>
      </trkpt>
      <trkpt lat="59.9700945" lon="17.7535851">
        <ele>27.5349</ele>
        <time>2013-05-13T18:33:26Z</time>
      </trkpt>
      <trkpt lat="59.9701019" lon="17.7535623">
        <ele>27.0543</ele>
        <time>2013-05-13T18:33:27Z</time>
      </trkpt>
      <trkpt lat="59.9701095" lon="17.75354">
        <ele>27.0543</ele>
        <time>2013-05-13T18:33:28Z</time>
      </trkpt>
      <trkpt lat="59.9701175" lon="17.7535218">
        <ele>26.5736</ele>
        <time>2013-05-13T18:33:29Z</time>
      </trkpt>
      <trkpt lat="59.9701254" lon="17.7535042">
        <ele>26.5736</ele>
        <time>2013-05-13T18:33:30Z</time>
      </trkpt>
      <trkpt lat="59.9701334" lon="17.7534834">
        <ele>26.0929</ele>
        <time>2013-05-13T18:33:31Z</time>
      </trkpt>
      <trkpt lat="59.9701416" lon="17.7534633">
        <ele>26.0929</ele>
        <time>2013-05-13T18:33:32Z</time>
      </trkpt>
      <trkpt lat="59.9701501" lon="17.7534431">
        <ele>26.0929</ele>
        <time>2013-05-13T18:33:33Z</time>
      </trkpt>
      <trkpt lat="59.9701579" lon="17.7534214">
        <ele>26.0929</ele>
        <time>2013-05-13T18:33:34Z</time>
      </trkpt>
      <trkpt lat="59.9701658" lon="17.7533991">
        <ele>26.0929</ele>
        <time>2013-05-13T18:33:35Z</time>
      </trkpt>
      <trkpt lat="59.9701745" lon="17.7533758">
        <ele>26.0929</ele>
        <time>2013-05-13T18:33:36Z</time>
      </trkpt>
      <trkpt lat="59.9701825" lon="17.7533545">
        <ele>26.0929</ele>
        <time>2013-05-13T18:33:37Z</time>
      </trkpt>
      <trkpt lat="59.9701905" lon="17.7533322">
        <ele>26.0929</ele>
        <time>2013-05-13T18:33:38Z</time>
      </trkpt>
      <trkpt lat="59.9702003" lon="17.7533106">
        <ele>25.6123</ele>
        <time>2013-05-13T18:33:39Z</time>
      </trkpt>
      <trkpt lat="59.970209" lon="17.7532898">
        <ele>25.6123</ele>
        <time>2013-05-13T18:33:40Z</time>
      </trkpt>
      <trkpt lat="59.9702169" lon="17.7532684">
        <ele>25.6123</ele>
        <time>2013-05-13T18:33:41Z</time>
      </trkpt>
      <trkpt lat="59.9702241" lon="17.7532498">
        <ele>25.6123</ele>
        <time>2013-05-13T18:33:42Z</time>
      </trkpt>
      <trkpt lat="59.970232" lon="17.7532271">
        <ele>25.1317</ele>
        <time>2013-05-13T18:33:43Z</time>
      </trkpt>
      <trkpt lat="59.9702409" lon="17.7532029">
        <ele>25.1317</ele>
        <time>2013-05-13T18:33:44Z</time>
      </trkpt>
      <trkpt lat="59.9702507" lon="17.7531801">
        <ele>24.651</ele>
        <time>2013-05-13T18:33:45Z</time>
      </trkpt>
      <trkpt lat="59.9702615" lon="17.7531586">
        <ele>24.651</ele>
        <time>2013-05-13T18:33:46Z</time>
      </trkpt>
      <trkpt lat="59.9702723" lon="17.7531381">
        <ele>24.1703</ele>
        <time>2013-05-13T18:33:47Z</time>
      </trkpt>
      <trkpt lat="59.9702812" lon="17.7531152">
        <ele>24.1703</ele>
        <time>2013-05-13T18:33:48Z</time>
      </trkpt>
      <trkpt lat="59.9702899" lon="17.7530952">
        <ele>23.6896</ele>
        <time>2013-05-13T18:33:49Z</time>
      </trkpt>
      <trkpt lat="59.9702978" lon="17.7530738">
        <ele>23.6896</ele>
        <time>2013-05-13T18:33:50Z</time>
      </trkpt>
      <trkpt lat="59.9703045" lon="17.7530535">
        <ele>23.6896</ele>
        <time>2013-05-13T18:33:51Z</time>
      </trkpt>
      <trkpt lat="59.9703122" lon="17.7530309">
        <ele>23.6896</ele>
        <time>2013-05-13T18:33:52Z</time>
      </trkpt>
      <trkpt lat="59.9703215" lon="17.7530107">
        <ele>23.209</ele>
        <time>2013-05-13T18:33:53Z</time>
      </trkpt>
      <trkpt lat="59.9703315" lon="17.7529876">
        <ele>23.209</ele>
        <time>2013-05-13T18:33:54Z</time>
      </trkpt>
      <trkpt lat="59.9703402" lon="17.7529629">
        <ele>22.7283</ele>
        <time>2013-05-13T18:33:55Z</time>
      </trkpt>
      <trkpt lat="59.9703488" lon="17.7529407">
        <ele>22.7283</ele>
        <time>2013-05-13T18:33:56Z</time>
      </trkpt>
      <trkpt lat="59.9703568" lon="17.7529201">
        <ele>22.7283</ele>
        <time>2013-05-13T18:33:57Z</time>
      </trkpt>
      <trkpt lat="59.970366" lon="17.7529017">
        <ele>22.2476</ele>
        <time>2013-05-13T18:33:58Z</time>
      </trkpt>
      <trkpt lat="59.9703754" lon="17.7528826">
        <ele>22.2476</ele>
        <time>2013-05-13T18:33:59Z</time>
      </trkpt>
      <trkpt lat="59.9703844" lon="17.752864">
        <ele>21.767</ele>
        <time>2013-05-13T18:34:00Z</time>
      </trkpt>
      <trkpt lat="59.9703936" lon="17.7528422">
        <ele>21.767</ele>
        <time>2013-05-13T18:34:01Z</time>
      </trkpt>
      <trkpt lat="59.9704022" lon="17.7528205">
        <ele>21.2864</ele>
        <time>2013-05-13T18:34:02Z</time>
      </trkpt>
      <trkpt lat="59.9704094" lon="17.7528013">
        <ele>21.2864</ele>
        <time>2013-05-13T18:34:03Z</time>
      </trkpt>
      <trkpt lat="59.9704164" lon="17.7527858">
        <ele>21.2864</ele>
        <time>2013-05-13T18:34:04Z</time>
      </trkpt>
      <trkpt lat="59.9704239" lon="17.752767">
        <ele>20.8057</ele>
        <time>2013-05-13T18:34:05Z</time>
      </trkpt>
      <trkpt lat="59.9704325" lon="17.7527452">
        <ele>20.8057</ele>
        <time>2013-05-13T18:34:06Z</time>
      </trkpt>
      <trkpt lat="59.9704405" lon="17.7527232">
        <ele>20.325</ele>
        <time>2013-05-13T18:34:07Z</time>
      </trkpt>
      <trkpt lat="59.9704475" lon="17.7527015">
        <ele>20.325</ele>
        <time>2013-05-13T18:34:08Z</time>
      </trkpt>
      <trkpt lat="59.9704547" lon="17.7526801">
        <ele>19.8444</ele>
        <time>2013-05-13T18:34:09Z</time>
      </trkpt>
      <trkpt lat="59.9704624" lon="17.7526594">
        <ele>19.8444</ele>
        <time>2013-05-13T18:34:10Z</time>
      </trkpt>
      <trkpt lat="59.9704703" lon="17.7526403">
        <ele>19.8444</ele>
        <time>2013-05-13T18:34:11Z</time>
      </trkpt>
      <trkpt lat="59.9704786" lon="17.7526198">
        <ele>19.3638</ele>
        <time>2013-05-13T18:34:12Z</time>
      </trkpt>
      <trkpt lat="59.9704878" lon="17.7525987">
        <ele>19.3638</ele>
        <time>2013-05-13T18:34:13Z</time>
      </trkpt>
      <trkpt lat="59.9704968" lon="17.7525779">
        <ele>19.3638</ele>
        <time>2013-05-13T18:34:14Z</time>
      </trkpt>
      <trkpt lat="59.9705049" lon="17.7525572">
        <ele>19.3638</ele>
        <time>2013-05-13T18:34:15Z</time>
      </trkpt>
      <trkpt lat="59.9705132" lon="17.7525357">
        <ele>19.3638</ele>
        <time>2013-05-13T18:34:16Z</time>
      </trkpt>
      <trkpt lat="59.9705223" lon="17.7525012">
        <ele>20.325</ele>
        <time>2013-05-13T18:34:17Z</time>
      </trkpt>
      <trkpt lat="59.9705309" lon="17.7524662">
        <ele>21.2864</ele>
        <time>2013-05-13T18:34:18Z</time>
      </trkpt>
      <trkpt lat="59.9705397" lon="17.7524316">
        <ele>21.767</ele>
        <time>2013-05-13T18:34:19Z</time>
      </trkpt>
      <trkpt lat="59.9705498" lon="17.7524066">
        <ele>22.2476</ele>
        <time>2013-05-13T18:34:20Z</time>
      </trkpt>
      <trkpt lat="59.9705597" lon="17.7523852">
        <ele>22.2476</ele>
        <time>2013-05-13T18:34:21Z</time>
      </trkpt>
      <trkpt lat="59.9705697" lon="17.752361">
        <ele>22.7283</ele>
        <time>2013-05-13T18:34:22Z</time>
      </trkpt>
      <trkpt lat="59.9705802" lon="17.7523372">
        <ele>23.209</ele>
        <time>2013-05-13T18:34:23Z</time>
      </trkpt>
      <trkpt lat="59.9705903" lon="17.752318">
        <ele>23.209</ele>
        <time>2013-05-13T18:34:24Z</time>
      </trkpt>
      <trkpt lat="59.9705992" lon="17.7522955">
        <ele>23.209</ele>
        <time>2013-05-13T18:34:25Z</time>
      </trkpt>
      <trkpt lat="59.9706101" lon="17.7522749">
        <ele>23.209</ele>
        <time>2013-05-13T18:34:26Z</time>
      </trkpt>
      <trkpt lat="59.9706205" lon="17.7522569">
        <ele>23.209</ele>
        <time>2013-05-13T18:34:27Z</time>
      </trkpt>
      <trkpt lat="59.9706313" lon="17.7522381">
        <ele>23.209</ele>
        <time>2013-05-13T18:34:28Z</time>
      </trkpt>
      <trkpt lat="59.9706417" lon="17.752217">
        <ele>23.209</ele>
        <time>2013-05-13T18:34:29Z</time>
      </trkpt>
      <trkpt lat="59.9706521" lon="17.7522004">
        <ele>22.7283</ele>
        <time>2013-05-13T18:34:30Z</time>
      </trkpt>
      <trkpt lat="59.970663" lon="17.7521839">
        <ele>22.2476</ele>
        <time>2013-05-13T18:34:31Z</time>
      </trkpt>
      <trkpt lat="59.9706749" lon="17.752166">
        <ele>22.2476</ele>
        <time>2013-05-13T18:34:32Z</time>
      </trkpt>
      <trkpt lat="59.9706878" lon="17.7521501">
        <ele>21.767</ele>
        <time>2013-05-13T18:34:33Z</time>
      </trkpt>
      <trkpt lat="59.9707018" lon="17.7521341">
        <ele>21.2864</ele>
        <time>2013-05-13T18:34:34Z</time>
      </trkpt>
      <trkpt lat="59.9707119" lon="17.7521145">
        <ele>21.2864</ele>
        <time>2013-05-13T18:34:35Z</time>
      </trkpt>
      <trkpt lat="59.9707202" lon="17.752093">
        <ele>20.8057</ele>
        <time>2013-05-13T18:34:36Z</time>
      </trkpt>
      <trkpt lat="59.9707299" lon="17.7520724">
        <ele>20.8057</ele>
        <time>2013-05-13T18:34:37Z</time>
      </trkpt>
      <trkpt lat="59.9707394" lon="17.752054">
        <ele>20.325</ele>
        <time>2013-05-13T18:34:38Z</time>
      </trkpt>
      <trkpt lat="59.970749" lon="17.7520389">
        <ele>20.325</ele>
        <time>2013-05-13T18:34:39Z</time>
      </trkpt>
      <trkpt lat="59.9707601" lon="17.7520196">
        <ele>20.325</ele>
        <time>2013-05-13T18:34:40Z</time>
      </trkpt>
      <trkpt lat="59.9707713" lon="17.7519998">
        <ele>19.8444</ele>
        <time>2013-05-13T18:34:41Z</time>
      </trkpt>
      <trkpt lat="59.9707816" lon="17.7519807">
        <ele>20.325</ele>
        <time>2013-05-13T18:34:42Z</time>
      </trkpt>
      <trkpt lat="59.9707919" lon="17.7519632">
        <ele>20.325</ele>
        <time>2013-05-13T18:34:43Z</time>
      </trkpt>
      <trkpt lat="59.9708013" lon="17.7519469">
        <ele>20.325</ele>
        <time>2013-05-13T18:34:44Z</time>
      </trkpt>
      <trkpt lat="59.9708121" lon="17.7519274">
        <ele>20.8057</ele>
        <time>2013-05-13T18:34:45Z</time>
      </trkpt>
      <trkpt lat="59.9708226" lon="17.7519099">
        <ele>20.8057</ele>
        <time>2013-05-13T18:34:46Z</time>
      </trkpt>
      <trkpt lat="59.9708307" lon="17.7519005">
        <ele>20.8057</ele>
        <time>2013-05-13T18:34:47Z</time>
      </trkpt>
      <trkpt lat="59.970837" lon="17.7518897">
        <ele>20.325</ele>
        <time>2013-05-13T18:34:48Z</time>
      </trkpt>
      <trkpt lat="59.9708478" lon="17.7518705">
        <ele>20.8057</ele>
        <time>2013-05-13T18:34:49Z</time>
      </trkpt>
      <trkpt lat="59.9708592" lon="17.7518554">
        <ele>20.8057</ele>
        <time>2013-05-13T18:34:50Z</time>
      </trkpt>
      <trkpt lat="59.9708721" lon="17.7518398">
        <ele>21.2864</ele>
        <time>2013-05-13T18:34:51Z</time>
      </trkpt>
      <trkpt lat="59.9708836" lon="17.7518248">
        <ele>21.767</ele>
        <time>2013-05-13T18:34:52Z</time>
      </trkpt>
      <trkpt lat="59.9708928" lon="17.7517934">
        <ele>22.7283</ele>
        <time>2013-05-13T18:34:53Z</time>
      </trkpt>
      <trkpt lat="59.9709039" lon="17.7517696">
        <ele>23.6896</ele>
        <time>2013-05-13T18:34:54Z</time>
      </trkpt>
      <trkpt lat="59.9709147" lon="17.7517493">
        <ele>24.1703</ele>
        <time>2013-05-13T18:34:55Z</time>
      </trkpt>
      <trkpt lat="59.9709274" lon="17.7517345">
        <ele>24.1703</ele>
        <time>2013-05-13T18:34:56Z</time>
      </trkpt>
      <trkpt lat="59.9709416" lon="17.7517204">
        <ele>24.651</ele>
        <time>2013-05-13T18:34:57Z</time>
      </trkpt>
      <trkpt lat="59.9709524" lon="17.7517038">
        <ele>24.651</ele>
        <time>2013-05-13T18:34:58Z</time>
      </trkpt>
      <trkpt lat="59.9709604" lon="17.7516912">
        <ele>24.651</ele>
        <time>2013-05-13T18:34:59Z</time>
      </trkpt>
      <trkpt lat="59.9709709" lon="17.7516818">
        <ele>24.651</ele>
        <time>2013-05-13T18:35:00Z</time>
      </trkpt>
      <trkpt lat="59.9709844" lon="17.7516701">
        <ele>24.651</ele>
        <time>2013-05-13T18:35:01Z</time>
      </trkpt>
      <trkpt lat="59.9709976" lon="17.7516569">
        <ele>25.1317</ele>
        <time>2013-05-13T18:35:02Z</time>
      </trkpt>
      <trkpt lat="59.971011" lon="17.7516431">
        <ele>25.1317</ele>
        <time>2013-05-13T18:35:03Z</time>
      </trkpt>
      <trkpt lat="59.9710264" lon="17.7516229">
        <ele>25.6123</ele>
        <time>2013-05-13T18:35:04Z</time>
      </trkpt>
      <trkpt lat="59.9710441" lon="17.7516017">
        <ele>26.0929</ele>
        <time>2013-05-13T18:35:05Z</time>
      </trkpt>
      <trkpt lat="59.9710586" lon="17.7515792">
        <ele>27.0543</ele>
        <time>2013-05-13T18:35:06Z</time>
      </trkpt>
      <trkpt lat="59.9710711" lon="17.7515607">
        <ele>27.5349</ele>
        <time>2013-05-13T18:35:07Z</time>
      </trkpt>
      <trkpt lat="59.9710835" lon="17.7515448">
        <ele>28.4962</ele>
        <time>2013-05-13T18:35:08Z</time>
      </trkpt>
      <trkpt lat="59.9710977" lon="17.7515296">
        <ele>29.4575</ele>
        <time>2013-05-13T18:35:09Z</time>
      </trkpt>
      <trkpt lat="59.9711108" lon="17.7515141">
        <ele>29.9381</ele>
        <time>2013-05-13T18:35:10Z</time>
      </trkpt>
      <trkpt lat="59.971124" lon="17.7515">
        <ele>30.8995</ele>
        <time>2013-05-13T18:35:11Z</time>
      </trkpt>
      <trkpt lat="59.9711359" lon="17.7514902">
        <ele>30.8995</ele>
        <time>2013-05-13T18:35:12Z</time>
      </trkpt>
      <trkpt lat="59.9711492" lon="17.7514767">
        <ele>30.8995</ele>
        <time>2013-05-13T18:35:13Z</time>
      </trkpt>
      <trkpt lat="59.9711633" lon="17.7514634">
        <ele>31.3801</ele>
        <time>2013-05-13T18:35:14Z</time>
      </trkpt>
      <trkpt lat="59.9711748" lon="17.7514434">
        <ele>31.3801</ele>
        <time>2013-05-13T18:35:15Z</time>
      </trkpt>
      <trkpt lat="59.971189" lon="17.7514338">
        <ele>32.3416</ele>
        <time>2013-05-13T18:35:16Z</time>
      </trkpt>
      <trkpt lat="59.9711999" lon="17.7514183">
        <ele>32.8223</ele>
        <time>2013-05-13T18:35:17Z</time>
      </trkpt>
      <trkpt lat="59.9712069" lon="17.7514001">
        <ele>32.3416</ele>
        <time>2013-05-13T18:35:18Z</time>
      </trkpt>
      <trkpt lat="59.9712161" lon="17.7513784">
        <ele>32.8223</ele>
        <time>2013-05-13T18:35:19Z</time>
      </trkpt>
      <trkpt lat="59.9712258" lon="17.7513577">
        <ele>33.3029</ele>
        <time>2013-05-13T18:35:20Z</time>
      </trkpt>
      <trkpt lat="59.9712375" lon="17.7513458">
        <ele>33.7834</ele>
        <time>2013-05-13T18:35:21Z</time>
      </trkpt>
      <trkpt lat="59.9712483" lon="17.7513282">
        <ele>33.7834</ele>
        <time>2013-05-13T18:35:22Z</time>
      </trkpt>
      <trkpt lat="59.9712603" lon="17.7513101">
        <ele>34.2642</ele>
        <time>2013-05-13T18:35:23Z</time>
      </trkpt>
      <trkpt lat="59.9712742" lon="17.7512876">
        <ele>34.2642</ele>
        <time>2013-05-13T18:35:24Z</time>
      </trkpt>
      <trkpt lat="59.9712906" lon="17.7512705">
        <ele>34.7449</ele>
        <time>2013-05-13T18:35:25Z</time>
      </trkpt>
      <trkpt lat="59.9713047" lon="17.7512569">
        <ele>34.2642</ele>
        <time>2013-05-13T18:35:26Z</time>
      </trkpt>
      <trkpt lat="59.9713172" lon="17.7512333">
        <ele>34.7449</ele>
        <time>2013-05-13T18:35:27Z</time>
      </trkpt>
      <trkpt lat="59.9713326" lon="17.7512136">
        <ele>35.2255</ele>
        <time>2013-05-13T18:35:28Z</time>
      </trkpt>
      <trkpt lat="59.9713441" lon="17.7511986">
        <ele>34.7449</ele>
        <time>2013-05-13T18:35:29Z</time>
      </trkpt>
      <trkpt lat="59.9713571" lon="17.7511815">
        <ele>34.7449</ele>
        <time>2013-05-13T18:35:30Z</time>
      </trkpt>
      <trkpt lat="59.9713693" lon="17.7511685">
        <ele>34.7449</ele>
        <time>2013-05-13T18:35:31Z</time>
      </trkpt>
      <trkpt lat="59.9713817" lon="17.7511601">
        <ele>34.7449</ele>
        <time>2013-05-13T18:35:32Z</time>
      </trkpt>
      <trkpt lat="59.9713949" lon="17.7511513">
        <ele>35.2255</ele>
        <time>2013-05-13T18:35:33Z</time>
      </trkpt>
      <trkpt lat="59.9714063" lon="17.7511389">
        <ele>35.2255</ele>
        <time>2013-05-13T18:35:34Z</time>
      </trkpt>
      <trkpt lat="59.9714161" lon="17.751125">
        <ele>35.2255</ele>
        <time>2013-05-13T18:35:35Z</time>
      </trkpt>
      <trkpt lat="59.9714252" lon="17.7511132">
        <ele>34.7449</ele>
        <time>2013-05-13T18:35:36Z</time>
      </trkpt>
      <trkpt lat="59.9714348" lon="17.7511003">
        <ele>34.7449</ele>
        <time>2013-05-13T18:35:37Z</time>
      </trkpt>
      <trkpt lat="59.9714415" lon="17.7510814">
        <ele>34.2642</ele>
        <time>2013-05-13T18:35:38Z</time>
      </trkpt>
      <trkpt lat="59.9714518" lon="17.7510651">
        <ele>34.2642</ele>
        <time>2013-05-13T18:35:39Z</time>
      </trkpt>
      <trkpt lat="59.9714636" lon="17.751048">
        <ele>34.2642</ele>
        <time>2013-05-13T18:35:40Z</time>
      </trkpt>
      <trkpt lat="59.9714741" lon="17.7510298">
        <ele>34.2642</ele>
        <time>2013-05-13T18:35:41Z</time>
      </trkpt>
      <trkpt lat="59.971485" lon="17.7510104">
        <ele>33.7834</ele>
        <time>2013-05-13T18:35:42Z</time>
      </trkpt>
      <trkpt lat="59.9714974" lon="17.7510021">
        <ele>33.7834</ele>
        <time>2013-05-13T18:35:43Z</time>
      </trkpt>
      <trkpt lat="59.9715093" lon="17.7509923">
        <ele>33.7834</ele>
        <time>2013-05-13T18:35:44Z</time>
      </trkpt>
      <trkpt lat="59.9715208" lon="17.7509778">
        <ele>33.7834</ele>
        <time>2013-05-13T18:35:45Z</time>
      </trkpt>
      <trkpt lat="59.9715319" lon="17.750962">
        <ele>33.3029</ele>
        <time>2013-05-13T18:35:46Z</time>
      </trkpt>
      <trkpt lat="59.971543" lon="17.7509513">
        <ele>33.3029</ele>
        <time>2013-05-13T18:35:47Z</time>
      </trkpt>
      <trkpt lat="59.9715525" lon="17.7509381">
        <ele>33.3029</ele>
        <time>2013-05-13T18:35:48Z</time>
      </trkpt>
      <trkpt lat="59.9715615" lon="17.7509211">
        <ele>32.8223</ele>
        <time>2013-05-13T18:35:49Z</time>
      </trkpt>
      <trkpt lat="59.971571" lon="17.7509024">
        <ele>32.8223</ele>
        <time>2013-05-13T18:35:50Z</time>
      </trkpt>
      <trkpt lat="59.9715809" lon="17.7508842">
        <ele>32.8223</ele>
        <time>2013-05-13T18:35:51Z</time>
      </trkpt>
      <trkpt lat="59.9715917" lon="17.750867">
        <ele>32.8223</ele>
        <time>2013-05-13T18:35:52Z</time>
      </trkpt>
      <trkpt lat="59.9716031" lon="17.750852">
        <ele>32.8223</ele>
        <time>2013-05-13T18:35:53Z</time>
      </trkpt>
      <trkpt lat="59.9716153" lon="17.750836">
        <ele>32.8223</ele>
        <time>2013-05-13T18:35:54Z</time>
      </trkpt>
      <trkpt lat="59.9716275" lon="17.7508187">
        <ele>32.8223</ele>
        <time>2013-05-13T18:35:55Z</time>
      </trkpt>
      <trkpt lat="59.9716407" lon="17.7508044">
        <ele>32.3416</ele>
        <time>2013-05-13T18:35:56Z</time>
      </trkpt>
      <trkpt lat="59.9716529" lon="17.7507918">
        <ele>32.3416</ele>
        <time>2013-05-13T18:35:57Z</time>
      </trkpt>
      <trkpt lat="59.9716646" lon="17.7507763">
        <ele>32.3416</ele>
        <time>2013-05-13T18:35:58Z</time>
      </trkpt>
      <trkpt lat="59.9716768" lon="17.7507593">
        <ele>32.3416</ele>
        <time>2013-05-13T18:35:59Z</time>
      </trkpt>
      <trkpt lat="59.9716908" lon="17.7507422">
        <ele>32.3416</ele>
        <time>2013-05-13T18:36:00Z</time>
      </trkpt>
      <trkpt lat="59.9717044" lon="17.7507226">
        <ele>32.3416</ele>
        <time>2013-05-13T18:36:01Z</time>
      </trkpt>
      <trkpt lat="59.971717" lon="17.7507051">
        <ele>31.8607</ele>
        <time>2013-05-13T18:36:02Z</time>
      </trkpt>
      <trkpt lat="59.9717311" lon="17.7506889">
        <ele>31.3801</ele>
        <time>2013-05-13T18:36:03Z</time>
      </trkpt>
      <trkpt lat="59.9717438" lon="17.7506713">
        <ele>31.3801</ele>
        <time>2013-05-13T18:36:04Z</time>
      </trkpt>
      <trkpt lat="59.9717535" lon="17.7506551">
        <ele>30.8995</ele>
        <time>2013-05-13T18:36:05Z</time>
      </trkpt>
      <trkpt lat="59.971763" lon="17.7506374">
        <ele>31.3801</ele>
        <time>2013-05-13T18:36:06Z</time>
      </trkpt>
      <trkpt lat="59.9717723" lon="17.7506195">
        <ele>31.3801</ele>
        <time>2013-05-13T18:36:07Z</time>
      </trkpt>
      <trkpt lat="59.9717812" lon="17.7506008">
        <ele>31.3801</ele>
        <time>2013-05-13T18:36:08Z</time>
      </trkpt>
      <trkpt lat="59.9717922" lon="17.750583">
        <ele>31.3801</ele>
        <time>2013-05-13T18:36:09Z</time>
      </trkpt>
      <trkpt lat="59.9718023" lon="17.7505644">
        <ele>31.8607</ele>
        <time>2013-05-13T18:36:10Z</time>
      </trkpt>
      <trkpt lat="59.9718101" lon="17.7505464">
        <ele>31.8607</ele>
        <time>2013-05-13T18:36:11Z</time>
      </trkpt>
      <trkpt lat="59.9718172" lon="17.7505252">
        <ele>32.3416</ele>
        <time>2013-05-13T18:36:12Z</time>
      </trkpt>
      <trkpt lat="59.9718264" lon="17.7505061">
        <ele>31.8607</ele>
        <time>2013-05-13T18:36:13Z</time>
      </trkpt>
      <trkpt lat="59.9718341" lon="17.7504792">
        <ele>32.3416</ele>
        <time>2013-05-13T18:36:14Z</time>
      </trkpt>
      <trkpt lat="59.97184" lon="17.7504584">
        <ele>32.3416</ele>
        <time>2013-05-13T18:36:15Z</time>
      </trkpt>
      <trkpt lat="59.9718474" lon="17.7504377">
        <ele>32.3416</ele>
        <time>2013-05-13T18:36:16Z</time>
      </trkpt>
      <trkpt lat="59.9718564" lon="17.7504096">
        <ele>32.3416</ele>
        <time>2013-05-13T18:36:17Z</time>
      </trkpt>
      <trkpt lat="59.9718662" lon="17.7503853">
        <ele>32.8223</ele>
        <time>2013-05-13T18:36:18Z</time>
      </trkpt>
      <trkpt lat="59.9718746" lon="17.7503614">
        <ele>32.8223</ele>
        <time>2013-05-13T18:36:19Z</time>
      </trkpt>
      <trkpt lat="59.9718818" lon="17.7503422">
        <ele>32.8223</ele>
        <time>2013-05-13T18:36:20Z</time>
      </trkpt>
      <trkpt lat="59.9718926" lon="17.7503247">
        <ele>32.8223</ele>
        <time>2013-05-13T18:36:21Z</time>
      </trkpt>
      <trkpt lat="59.9719025" lon="17.7503085">
        <ele>32.8223</ele>
        <time>2013-05-13T18:36:22Z</time>
      </trkpt>
      <trkpt lat="59.9719103" lon="17.7502829">
        <ele>32.8223</ele>
        <time>2013-05-13T18:36:23Z</time>
      </trkpt>
      <trkpt lat="59.9719186" lon="17.7502655">
        <ele>32.8223</ele>
        <time>2013-05-13T18:36:24Z</time>
      </trkpt>
      <trkpt lat="59.9719274" lon="17.750246">
        <ele>32.8223</ele>
        <time>2013-05-13T18:36:25Z</time>
      </trkpt>
      <trkpt lat="59.9719373" lon="17.7502331">
        <ele>32.8223</ele>
        <time>2013-05-13T18:36:26Z</time>
      </trkpt>
      <trkpt lat="59.9719479" lon="17.7502174">
        <ele>32.3416</ele>
        <time>2013-05-13T18:36:27Z</time>
      </trkpt>
      <trkpt lat="59.9719581" lon="17.7502069">
        <ele>32.3416</ele>
        <time>2013-05-13T18:36:28Z</time>
      </trkpt>
      <trkpt lat="59.9719662" lon="17.7501973">
        <ele>31.8607</ele>
        <time>2013-05-13T18:36:29Z</time>
      </trkpt>
      <trkpt lat="59.971974" lon="17.7501875">
        <ele>31.3801</ele>
        <time>2013-05-13T18:36:30Z</time>
      </trkpt>
      <trkpt lat="59.9719833" lon="17.7501831">
        <ele>31.8607</ele>
        <time>2013-05-13T18:36:31Z</time>
      </trkpt>
      <trkpt lat="59.9719921" lon="17.7501719">
        <ele>31.8607</ele>
        <time>2013-05-13T18:36:32Z</time>
      </trkpt>
      <trkpt lat="59.9719985" lon="17.7501391">
        <ele>32.8223</ele>
        <time>2013-05-13T18:36:33Z</time>
      </trkpt>
      <trkpt lat="59.9720051" lon="17.7501123">
        <ele>33.3029</ele>
        <time>2013-05-13T18:36:34Z</time>
      </trkpt>
      <trkpt lat="59.9720109" lon="17.7500767">
        <ele>33.7834</ele>
        <time>2013-05-13T18:36:35Z</time>
      </trkpt>
      <trkpt lat="59.9720164" lon="17.7500455">
        <ele>34.2642</ele>
        <time>2013-05-13T18:36:36Z</time>
      </trkpt>
      <trkpt lat="59.9720227" lon="17.7500151">
        <ele>34.7449</ele>
        <time>2013-05-13T18:36:37Z</time>
      </trkpt>
      <trkpt lat="59.9720329" lon="17.7499875">
        <ele>35.2255</ele>
        <time>2013-05-13T18:36:38Z</time>
      </trkpt>
      <trkpt lat="59.972044" lon="17.7499584">
        <ele>35.7061</ele>
        <time>2013-05-13T18:36:39Z</time>
      </trkpt>
      <trkpt lat="59.9720543" lon="17.7499378">
        <ele>35.7061</ele>
        <time>2013-05-13T18:36:40Z</time>
      </trkpt>
      <trkpt lat="59.9720617" lon="17.7499139">
        <ele>35.7061</ele>
        <time>2013-05-13T18:36:41Z</time>
      </trkpt>
      <trkpt lat="59.9720693" lon="17.7498865">
        <ele>36.1868</ele>
        <time>2013-05-13T18:36:42Z</time>
      </trkpt>
      <trkpt lat="59.9720781" lon="17.7498616">
        <ele>36.6675</ele>
        <time>2013-05-13T18:36:43Z</time>
      </trkpt>
      <trkpt lat="59.9720854" lon="17.7498404">
        <ele>36.6675</ele>
        <time>2013-05-13T18:36:44Z</time>
      </trkpt>
      <trkpt lat="59.9720933" lon="17.7498238">
        <ele>36.6675</ele>
        <time>2013-05-13T18:36:45Z</time>
      </trkpt>
      <trkpt lat="59.9721033" lon="17.7498079">
        <ele>36.1868</ele>
        <time>2013-05-13T18:36:46Z</time>
      </trkpt>
      <trkpt lat="59.9721154" lon="17.7497974">
        <ele>36.1868</ele>
        <time>2013-05-13T18:36:47Z</time>
      </trkpt>
      <trkpt lat="59.972124" lon="17.7497819">
        <ele>36.1868</ele>
        <time>2013-05-13T18:36:48Z</time>
      </trkpt>
      <trkpt lat="59.9721331" lon="17.7497668">
        <ele>36.1868</ele>
        <time>2013-05-13T18:36:49Z</time>
      </trkpt>
      <trkpt lat="59.9721416" lon="17.7497491">
        <ele>35.7061</ele>
        <time>2013-05-13T18:36:50Z</time>
      </trkpt>
      <trkpt lat="59.9721503" lon="17.7497286">
        <ele>35.2255</ele>
        <time>2013-05-13T18:36:51Z</time>
      </trkpt>
      <trkpt lat="59.9721591" lon="17.7497097">
        <ele>35.2255</ele>
        <time>2013-05-13T18:36:52Z</time>
      </trkpt>
      <trkpt lat="59.9721646" lon="17.7496798">
        <ele>35.7061</ele>
        <time>2013-05-13T18:36:53Z</time>
      </trkpt>
      <trkpt lat="59.9721684" lon="17.749639">
        <ele>36.6675</ele>
        <time>2013-05-13T18:36:54Z</time>
      </trkpt>
      <trkpt lat="59.9721781" lon="17.749614">
        <ele>37.1481</ele>
        <time>2013-05-13T18:36:55Z</time>
      </trkpt>
      <trkpt lat="59.9721874" lon="17.7495879">
        <ele>37.1481</ele>
        <time>2013-05-13T18:36:56Z</time>
      </trkpt>
      <trkpt lat="59.9721967" lon="17.7495625">
        <ele>37.6287</ele>
        <time>2013-05-13T18:36:57Z</time>
      </trkpt>
      <trkpt lat="59.9722061" lon="17.7495424">
        <ele>37.6287</ele>
        <time>2013-05-13T18:36:58Z</time>
      </trkpt>
      <trkpt lat="59.9722147" lon="17.7495249">
        <ele>37.1481</ele>
        <time>2013-05-13T18:36:59Z</time>
      </trkpt>
      <trkpt lat="59.9722242" lon="17.7495072">
        <ele>37.1481</ele>
        <time>2013-05-13T18:37:00Z</time>
      </trkpt>
      <trkpt lat="59.9722381" lon="17.749487">
        <ele>36.6675</ele>
        <time>2013-05-13T18:37:01Z</time>
      </trkpt>
      <trkpt lat="59.9722521" lon="17.7494529">
        <ele>37.1481</ele>
        <time>2013-05-13T18:37:02Z</time>
      </trkpt>
      <trkpt lat="59.9722647" lon="17.7494348">
        <ele>37.1481</ele>
        <time>2013-05-13T18:37:03Z</time>
      </trkpt>
      <trkpt lat="59.9722741" lon="17.7494232">
        <ele>36.6675</ele>
        <time>2013-05-13T18:37:04Z</time>
      </trkpt>
      <trkpt lat="59.9722862" lon="17.7494087">
        <ele>36.6675</ele>
        <time>2013-05-13T18:37:05Z</time>
      </trkpt>
      <trkpt lat="59.9722992" lon="17.7493975">
        <ele>36.6675</ele>
        <time>2013-05-13T18:37:06Z</time>
      </trkpt>
      <trkpt lat="59.972311" lon="17.7493845">
        <ele>36.1868</ele>
        <time>2013-05-13T18:37:07Z</time>
      </trkpt>
      <trkpt lat="59.972321" lon="17.7493684">
        <ele>36.1868</ele>
        <time>2013-05-13T18:37:08Z</time>
      </trkpt>
      <trkpt lat="59.9723321" lon="17.7493514">
        <ele>35.7061</ele>
        <time>2013-05-13T18:37:09Z</time>
      </trkpt>
      <trkpt lat="59.9723444" lon="17.7493332">
        <ele>35.2255</ele>
        <time>2013-05-13T18:37:10Z</time>
      </trkpt>
      <trkpt lat="59.9723538" lon="17.7493005">
        <ele>35.7061</ele>
        <time>2013-05-13T18:37:11Z</time>
      </trkpt>
      <trkpt lat="59.972364" lon="17.7492751">
        <ele>35.7061</ele>
        <time>2013-05-13T18:37:12Z</time>
      </trkpt>
      <trkpt lat="59.9723735" lon="17.7492452">
        <ele>36.1868</ele>
        <time>2013-05-13T18:37:13Z</time>
      </trkpt>
      <trkpt lat="59.9723834" lon="17.7492224">
        <ele>36.1868</ele>
        <time>2013-05-13T18:37:14Z</time>
      </trkpt>
      <trkpt lat="59.9723945" lon="17.749195">
        <ele>36.6675</ele>
        <time>2013-05-13T18:37:15Z</time>
      </trkpt>
      <trkpt lat="59.9724056" lon="17.7491701">
        <ele>37.1481</ele>
        <time>2013-05-13T18:37:16Z</time>
      </trkpt>
      <trkpt lat="59.9724153" lon="17.7491499">
        <ele>37.1481</ele>
        <time>2013-05-13T18:37:17Z</time>
      </trkpt>
      <trkpt lat="59.9724247" lon="17.749128">
        <ele>37.1481</ele>
        <time>2013-05-13T18:37:18Z</time>
      </trkpt>
      <trkpt lat="59.9724345" lon="17.7491037">
        <ele>37.6287</ele>
        <time>2013-05-13T18:37:19Z</time>
      </trkpt>
      <trkpt lat="59.9724444" lon="17.7490753">
        <ele>37.6287</ele>
        <time>2013-05-13T18:37:20Z</time>
      </trkpt>
      <trkpt lat="59.9724573" lon="17.7490489">
        <ele>37.6287</ele>
        <time>2013-05-13T18:37:21Z</time>
      </trkpt>
      <trkpt lat="59.972468" lon="17.7490265">
        <ele>37.1481</ele>
        <time>2013-05-13T18:37:22Z</time>
      </trkpt>
      <trkpt lat="59.9724755" lon="17.7490075">
        <ele>37.1481</ele>
        <time>2013-05-13T18:37:23Z</time>
      </trkpt>
      <trkpt lat="59.9724831" lon="17.7489852">
        <ele>36.6675</ele>
        <time>2013-05-13T18:37:24Z</time>
      </trkpt>
      <trkpt lat="59.9724909" lon="17.7489685">
        <ele>36.1868</ele>
        <time>2013-05-13T18:37:25Z</time>
      </trkpt>
      <trkpt lat="59.9724975" lon="17.7489502">
        <ele>35.7061</ele>
        <time>2013-05-13T18:37:26Z</time>
      </trkpt>
      <trkpt lat="59.9725061" lon="17.7489254">
        <ele>36.1868</ele>
        <time>2013-05-13T18:37:27Z</time>
      </trkpt>
      <trkpt lat="59.9725165" lon="17.7489157">
        <ele>36.1868</ele>
        <time>2013-05-13T18:37:28Z</time>
      </trkpt>
      <trkpt lat="59.9725256" lon="17.7488956">
        <ele>36.1868</ele>
        <time>2013-05-13T18:37:29Z</time>
      </trkpt>
      <trkpt lat="59.9725335" lon="17.7488777">
        <ele>35.7061</ele>
        <time>2013-05-13T18:37:30Z</time>
      </trkpt>
      <trkpt lat="59.9725433" lon="17.7488625">
        <ele>35.7061</ele>
        <time>2013-05-13T18:37:31Z</time>
      </trkpt>
      <trkpt lat="59.9725531" lon="17.7488469">
        <ele>35.7061</ele>
        <time>2013-05-13T18:37:32Z</time>
      </trkpt>
      <trkpt lat="59.9725631" lon="17.7488337">
        <ele>35.7061</ele>
        <time>2013-05-13T18:37:33Z</time>
      </trkpt>
      <trkpt lat="59.972576" lon="17.7488188">
        <ele>35.7061</ele>
        <time>2013-05-13T18:37:34Z</time>
      </trkpt>
      <trkpt lat="59.9725806" lon="17.7487886">
        <ele>36.1868</ele>
        <time>2013-05-13T18:37:35Z</time>
      </trkpt>
      <trkpt lat="59.9725856" lon="17.7487624">
        <ele>35.7061</ele>
        <time>2013-05-13T18:37:36Z</time>
      </trkpt>
      <trkpt lat="59.9725937" lon="17.7487458">
        <ele>35.7061</ele>
        <time>2013-05-13T18:37:37Z</time>
      </trkpt>
      <trkpt lat="59.9726022" lon="17.7487322">
        <ele>35.2255</ele>
        <time>2013-05-13T18:37:38Z</time>
      </trkpt>
      <trkpt lat="59.972613" lon="17.7487157">
        <ele>35.2255</ele>
        <time>2013-05-13T18:37:39Z</time>
      </trkpt>
      <trkpt lat="59.9726251" lon="17.7486978">
        <ele>35.2255</ele>
        <time>2013-05-13T18:37:40Z</time>
      </trkpt>
      <trkpt lat="59.972633" lon="17.7486807">
        <ele>34.7449</ele>
        <time>2013-05-13T18:37:41Z</time>
      </trkpt>
      <trkpt lat="59.9726422" lon="17.748662">
        <ele>34.7449</ele>
        <time>2013-05-13T18:37:42Z</time>
      </trkpt>
      <trkpt lat="59.9726498" lon="17.7486451">
        <ele>34.7449</ele>
        <time>2013-05-13T18:37:43Z</time>
      </trkpt>
      <trkpt lat="59.9726607" lon="17.7486297">
        <ele>34.7449</ele>
        <time>2013-05-13T18:37:44Z</time>
      </trkpt>
      <trkpt lat="59.9726707" lon="17.7486126">
        <ele>34.7449</ele>
        <time>2013-05-13T18:37:45Z</time>
      </trkpt>
      <trkpt lat="59.972679" lon="17.7485975">
        <ele>33.7834</ele>
        <time>2013-05-13T18:37:46Z</time>
      </trkpt>
      <trkpt lat="59.9726903" lon="17.7485812">
        <ele>33.7834</ele>
        <time>2013-05-13T18:37:47Z</time>
      </trkpt>
      <trkpt lat="59.9726987" lon="17.7485595">
        <ele>33.3029</ele>
        <time>2013-05-13T18:37:48Z</time>
      </trkpt>
      <trkpt lat="59.9727076" lon="17.7485257">
        <ele>33.7834</ele>
        <time>2013-05-13T18:37:49Z</time>
      </trkpt>
      <trkpt lat="59.9727162" lon="17.7484916">
        <ele>34.2642</ele>
        <time>2013-05-13T18:37:50Z</time>
      </trkpt>
      <trkpt lat="59.9727261" lon="17.7484635">
        <ele>34.2642</ele>
        <time>2013-05-13T18:37:51Z</time>
      </trkpt>
      <trkpt lat="59.9727376" lon="17.7484293">
        <ele>35.2255</ele>
        <time>2013-05-13T18:37:52Z</time>
      </trkpt>
      <trkpt lat="59.9727503" lon="17.7483966">
        <ele>35.7061</ele>
        <time>2013-05-13T18:37:53Z</time>
      </trkpt>
      <trkpt lat="59.9727589" lon="17.7483723">
        <ele>36.1868</ele>
        <time>2013-05-13T18:37:54Z</time>
      </trkpt>
      <trkpt lat="59.9727658" lon="17.7483512">
        <ele>36.1868</ele>
        <time>2013-05-13T18:37:55Z</time>
      </trkpt>
      <trkpt lat="59.9727745" lon="17.7483271">
        <ele>36.1868</ele>
        <time>2013-05-13T18:37:56Z</time>
      </trkpt>
      <trkpt lat="59.9727832" lon="17.7483001">
        <ele>36.1868</ele>
        <time>2013-05-13T18:37:57Z</time>
      </trkpt>
      <trkpt lat="59.972791" lon="17.7482782">
        <ele>36.1868</ele>
        <time>2013-05-13T18:37:58Z</time>
      </trkpt>
      <trkpt lat="59.9728001" lon="17.7482582">
        <ele>36.1868</ele>
        <time>2013-05-13T18:37:59Z</time>
      </trkpt>
      <trkpt lat="59.9728092" lon="17.7482371">
        <ele>35.7061</ele>
        <time>2013-05-13T18:38:00Z</time>
      </trkpt>
      <trkpt lat="59.9728208" lon="17.7482199">
        <ele>35.7061</ele>
        <time>2013-05-13T18:38:01Z</time>
      </trkpt>
      <trkpt lat="59.9728328" lon="17.7482048">
        <ele>35.2255</ele>
        <time>2013-05-13T18:38:02Z</time>
      </trkpt>
      <trkpt lat="59.972843" lon="17.748186">
        <ele>35.2255</ele>
        <time>2013-05-13T18:38:03Z</time>
      </trkpt>
      <trkpt lat="59.9728532" lon="17.7481677">
        <ele>35.2255</ele>
        <time>2013-05-13T18:38:04Z</time>
      </trkpt>
      <trkpt lat="59.972866" lon="17.7481528">
        <ele>35.7061</ele>
        <time>2013-05-13T18:38:05Z</time>
      </trkpt>
      <trkpt lat="59.9728767" lon="17.7481386">
        <ele>35.7061</ele>
        <time>2013-05-13T18:38:06Z</time>
      </trkpt>
      <trkpt lat="59.9728871" lon="17.7481237">
        <ele>35.7061</ele>
        <time>2013-05-13T18:38:07Z</time>
      </trkpt>
      <trkpt lat="59.9728992" lon="17.7481087">
        <ele>35.7061</ele>
        <time>2013-05-13T18:38:08Z</time>
      </trkpt>
      <trkpt lat="59.9729095" lon="17.7480906">
        <ele>35.7061</ele>
        <time>2013-05-13T18:38:09Z</time>
      </trkpt>
      <trkpt lat="59.9729181" lon="17.7480677">
        <ele>35.7061</ele>
        <time>2013-05-13T18:38:10Z</time>
      </trkpt>
      <trkpt lat="59.9729298" lon="17.7480479">
        <ele>35.2255</ele>
        <time>2013-05-13T18:38:11Z</time>
      </trkpt>
      <trkpt lat="59.9729428" lon="17.7480253">
        <ele>35.7061</ele>
        <time>2013-05-13T18:38:12Z</time>
      </trkpt>
      <trkpt lat="59.9729545" lon="17.7480042">
        <ele>35.2255</ele>
        <time>2013-05-13T18:38:13Z</time>
      </trkpt>
      <trkpt lat="59.9729655" lon="17.7479847">
        <ele>35.2255</ele>
        <time>2013-05-13T18:38:14Z</time>
      </trkpt>
      <trkpt lat="59.9729768" lon="17.7479665">
        <ele>35.7061</ele>
        <time>2013-05-13T18:38:15Z</time>
      </trkpt>
      <trkpt lat="59.9729881" lon="17.7479516">
        <ele>35.7061</ele>
        <time>2013-05-13T18:38:16Z</time>
      </trkpt>
      <trkpt lat="59.9730002" lon="17.7479389">
        <ele>35.7061</ele>
        <time>2013-05-13T18:38:17Z</time>
      </trkpt>
      <trkpt lat="59.9730131" lon="17.7479258">
        <ele>35.7061</ele>
        <time>2013-05-13T18:38:18Z</time>
      </trkpt>
      <trkpt lat="59.973026" lon="17.7479119">
        <ele>35.7061</ele>
        <time>2013-05-13T18:38:19Z</time>
      </trkpt>
      <trkpt lat="59.9730368" lon="17.7478968">
        <ele>35.7061</ele>
        <time>2013-05-13T18:38:20Z</time>
      </trkpt>
      <trkpt lat="59.9730495" lon="17.7478823">
        <ele>35.7061</ele>
        <time>2013-05-13T18:38:21Z</time>
      </trkpt>
      <trkpt lat="59.9730628" lon="17.7478673">
        <ele>35.7061</ele>
        <time>2013-05-13T18:38:22Z</time>
      </trkpt>
      <trkpt lat="59.9730751" lon="17.7478527">
        <ele>35.2255</ele>
        <time>2013-05-13T18:38:23Z</time>
      </trkpt>
      <trkpt lat="59.9730875" lon="17.7478373">
        <ele>35.7061</ele>
        <time>2013-05-13T18:38:24Z</time>
      </trkpt>
      <trkpt lat="59.9731002" lon="17.7478215">
        <ele>35.7061</ele>
        <time>2013-05-13T18:38:25Z</time>
      </trkpt>
      <trkpt lat="59.9731116" lon="17.7478067">
        <ele>35.7061</ele>
        <time>2013-05-13T18:38:26Z</time>
      </trkpt>
      <trkpt lat="59.9731239" lon="17.7477926">
        <ele>35.7061</ele>
        <time>2013-05-13T18:38:27Z</time>
      </trkpt>
      <trkpt lat="59.9731369" lon="17.7477798">
        <ele>35.2255</ele>
        <time>2013-05-13T18:38:28Z</time>
      </trkpt>
      <trkpt lat="59.973149" lon="17.7477664">
        <ele>35.2255</ele>
        <time>2013-05-13T18:38:29Z</time>
      </trkpt>
      <trkpt lat="59.9731606" lon="17.7477521">
        <ele>35.2255</ele>
        <time>2013-05-13T18:38:30Z</time>
      </trkpt>
      <trkpt lat="59.9731717" lon="17.7477362">
        <ele>35.2255</ele>
        <time>2013-05-13T18:38:31Z</time>
      </trkpt>
      <trkpt lat="59.9731821" lon="17.7477175">
        <ele>35.2255</ele>
        <time>2013-05-13T18:38:32Z</time>
      </trkpt>
      <trkpt lat="59.9731945" lon="17.7476987">
        <ele>35.2255</ele>
        <time>2013-05-13T18:38:33Z</time>
      </trkpt>
      <trkpt lat="59.9732069" lon="17.7476814">
        <ele>35.2255</ele>
        <time>2013-05-13T18:38:34Z</time>
      </trkpt>
      <trkpt lat="59.9732188" lon="17.7476667">
        <ele>35.2255</ele>
        <time>2013-05-13T18:38:35Z</time>
      </trkpt>
      <trkpt lat="59.9732333" lon="17.7476539">
        <ele>35.2255</ele>
        <time>2013-05-13T18:38:36Z</time>
      </trkpt>
      <trkpt lat="59.9732477" lon="17.7476402">
        <ele>35.2255</ele>
        <time>2013-05-13T18:38:37Z</time>
      </trkpt>
      <trkpt lat="59.9732597" lon="17.7476241">
        <ele>34.7449</ele>
        <time>2013-05-13T18:38:38Z</time>
      </trkpt>
      <trkpt lat="59.9732727" lon="17.7476118">
        <ele>34.7449</ele>
        <time>2013-05-13T18:38:39Z</time>
      </trkpt>
      <trkpt lat="59.9732885" lon="17.7475995">
        <ele>35.2255</ele>
        <time>2013-05-13T18:38:40Z</time>
      </trkpt>
      <trkpt lat="59.9733033" lon="17.7475832">
        <ele>35.2255</ele>
        <time>2013-05-13T18:38:41Z</time>
      </trkpt>
      <trkpt lat="59.9733175" lon="17.7475705">
        <ele>35.2255</ele>
        <time>2013-05-13T18:38:42Z</time>
      </trkpt>
      <trkpt lat="59.9733302" lon="17.7475591">
        <ele>35.2255</ele>
        <time>2013-05-13T18:38:43Z</time>
      </trkpt>
      <trkpt lat="59.973342" lon="17.7475454">
        <ele>35.2255</ele>
        <time>2013-05-13T18:38:44Z</time>
      </trkpt>
      <trkpt lat="59.9733535" lon="17.7475299">
        <ele>34.7449</ele>
        <time>2013-05-13T18:38:45Z</time>
      </trkpt>
      <trkpt lat="59.973365" lon="17.7475161">
        <ele>34.7449</ele>
        <time>2013-05-13T18:38:46Z</time>
      </trkpt>
      <trkpt lat="59.9733767" lon="17.7475031">
        <ele>34.2642</ele>
        <time>2013-05-13T18:38:47Z</time>
      </trkpt>
      <trkpt lat="59.9733881" lon="17.7474892">
        <ele>34.2642</ele>
        <time>2013-05-13T18:38:48Z</time>
      </trkpt>
      <trkpt lat="59.9733996" lon="17.7474783">
        <ele>33.7834</ele>
        <time>2013-05-13T18:38:49Z</time>
      </trkpt>
      <trkpt lat="59.9734121" lon="17.7474634">
        <ele>33.7834</ele>
        <time>2013-05-13T18:38:50Z</time>
      </trkpt>
      <trkpt lat="59.9734263" lon="17.7474478">
        <ele>33.7834</ele>
        <time>2013-05-13T18:38:51Z</time>
      </trkpt>
      <trkpt lat="59.9734374" lon="17.7474337">
        <ele>33.7834</ele>
        <time>2013-05-13T18:38:52Z</time>
      </trkpt>
      <trkpt lat="59.9734473" lon="17.7474182">
        <ele>33.7834</ele>
        <time>2013-05-13T18:38:53Z</time>
      </trkpt>
      <trkpt lat="59.9734621" lon="17.7474062">
        <ele>33.7834</ele>
        <time>2013-05-13T18:38:54Z</time>
      </trkpt>
      <trkpt lat="59.9734773" lon="17.747398">
        <ele>33.7834</ele>
        <time>2013-05-13T18:38:55Z</time>
      </trkpt>
      <trkpt lat="59.9734913" lon="17.7473896">
        <ele>33.7834</ele>
        <time>2013-05-13T18:38:56Z</time>
      </trkpt>
      <trkpt lat="59.9735043" lon="17.7473815">
        <ele>33.7834</ele>
        <time>2013-05-13T18:38:57Z</time>
      </trkpt>
      <trkpt lat="59.9735182" lon="17.7473683">
        <ele>33.3029</ele>
        <time>2013-05-13T18:38:58Z</time>
      </trkpt>
      <trkpt lat="59.9735341" lon="17.7473605">
        <ele>33.3029</ele>
        <time>2013-05-13T18:38:59Z</time>
      </trkpt>
      <trkpt lat="59.9735466" lon="17.7473551">
        <ele>33.3029</ele>
        <time>2013-05-13T18:39:00Z</time>
      </trkpt>
      <trkpt lat="59.9735575" lon="17.7473432">
        <ele>32.8223</ele>
        <time>2013-05-13T18:39:01Z</time>
      </trkpt>
      <trkpt lat="59.9735667" lon="17.7473327">
        <ele>32.3416</ele>
        <time>2013-05-13T18:39:02Z</time>
      </trkpt>
      <trkpt lat="59.973576" lon="17.7473199">
        <ele>31.8607</ele>
        <time>2013-05-13T18:39:03Z</time>
      </trkpt>
      <trkpt lat="59.9735891" lon="17.7473094">
        <ele>31.3801</ele>
        <time>2013-05-13T18:39:04Z</time>
      </trkpt>
      <trkpt lat="59.973601" lon="17.747296">
        <ele>31.3801</ele>
        <time>2013-05-13T18:39:05Z</time>
      </trkpt>
      <trkpt lat="59.9736151" lon="17.74728">
        <ele>31.3801</ele>
        <time>2013-05-13T18:39:06Z</time>
      </trkpt>
      <trkpt lat="59.9736314" lon="17.7472688">
        <ele>31.3801</ele>
        <time>2013-05-13T18:39:07Z</time>
      </trkpt>
      <trkpt lat="59.9736463" lon="17.7472597">
        <ele>31.3801</ele>
        <time>2013-05-13T18:39:08Z</time>
      </trkpt>
      <trkpt lat="59.9736545" lon="17.747247">
        <ele>30.8995</ele>
        <time>2013-05-13T18:39:09Z</time>
      </trkpt>
      <trkpt lat="59.9736652" lon="17.7472344">
        <ele>30.8995</ele>
        <time>2013-05-13T18:39:10Z</time>
      </trkpt>
      <trkpt lat="59.9736757" lon="17.7472178">
        <ele>30.8995</ele>
        <time>2013-05-13T18:39:11Z</time>
      </trkpt>
      <trkpt lat="59.9736881" lon="17.7472004">
        <ele>31.3801</ele>
        <time>2013-05-13T18:39:12Z</time>
      </trkpt>
      <trkpt lat="59.9737051" lon="17.7471795">
        <ele>31.8607</ele>
        <time>2013-05-13T18:39:13Z</time>
      </trkpt>
      <trkpt lat="59.9737161" lon="17.7471575">
        <ele>31.8607</ele>
        <time>2013-05-13T18:39:14Z</time>
      </trkpt>
      <trkpt lat="59.9737253" lon="17.7471401">
        <ele>31.8607</ele>
        <time>2013-05-13T18:39:15Z</time>
      </trkpt>
      <trkpt lat="59.9737363" lon="17.7471326">
        <ele>31.8607</ele>
        <time>2013-05-13T18:39:16Z</time>
      </trkpt>
      <trkpt lat="59.9737473" lon="17.7471203">
        <ele>31.8607</ele>
        <time>2013-05-13T18:39:17Z</time>
      </trkpt>
      <trkpt lat="59.9737585" lon="17.7471046">
        <ele>31.3801</ele>
        <time>2013-05-13T18:39:18Z</time>
      </trkpt>
      <trkpt lat="59.9737699" lon="17.7470903">
        <ele>31.8607</ele>
        <time>2013-05-13T18:39:19Z</time>
      </trkpt>
      <trkpt lat="59.9737814" lon="17.7470795">
        <ele>31.3801</ele>
        <time>2013-05-13T18:39:20Z</time>
      </trkpt>
      <trkpt lat="59.9737933" lon="17.7470689">
        <ele>31.3801</ele>
        <time>2013-05-13T18:39:21Z</time>
      </trkpt>
      <trkpt lat="59.9738047" lon="17.7470525">
        <ele>31.3801</ele>
        <time>2013-05-13T18:39:22Z</time>
      </trkpt>
      <trkpt lat="59.9738153" lon="17.7470352">
        <ele>31.3801</ele>
        <time>2013-05-13T18:39:23Z</time>
      </trkpt>
      <trkpt lat="59.9738263" lon="17.7470205">
        <ele>31.3801</ele>
        <time>2013-05-13T18:39:24Z</time>
      </trkpt>
      <trkpt lat="59.9738399" lon="17.7470083">
        <ele>31.8607</ele>
        <time>2013-05-13T18:39:25Z</time>
      </trkpt>
      <trkpt lat="59.9738533" lon="17.7469956">
        <ele>31.8607</ele>
        <time>2013-05-13T18:39:26Z</time>
      </trkpt>
      <trkpt lat="59.9738666" lon="17.7469815">
        <ele>32.3416</ele>
        <time>2013-05-13T18:39:27Z</time>
      </trkpt>
      <trkpt lat="59.9738806" lon="17.7469652">
        <ele>32.3416</ele>
        <time>2013-05-13T18:39:28Z</time>
      </trkpt>
      <trkpt lat="59.9738947" lon="17.7469524">
        <ele>32.8223</ele>
        <time>2013-05-13T18:39:29Z</time>
      </trkpt>
      <trkpt lat="59.9739094" lon="17.7469406">
        <ele>32.8223</ele>
        <time>2013-05-13T18:39:30Z</time>
      </trkpt>
      <trkpt lat="59.9739233" lon="17.7469271">
        <ele>33.3029</ele>
        <time>2013-05-13T18:39:31Z</time>
      </trkpt>
      <trkpt lat="59.9739364" lon="17.746912">
        <ele>33.3029</ele>
        <time>2013-05-13T18:39:32Z</time>
      </trkpt>
      <trkpt lat="59.97395" lon="17.7468981">
        <ele>33.3029</ele>
        <time>2013-05-13T18:39:33Z</time>
      </trkpt>
      <trkpt lat="59.9739622" lon="17.7468834">
        <ele>33.3029</ele>
        <time>2013-05-13T18:39:34Z</time>
      </trkpt>
      <trkpt lat="59.9739738" lon="17.746867">
        <ele>33.7834</ele>
        <time>2013-05-13T18:39:35Z</time>
      </trkpt>
      <trkpt lat="59.9739854" lon="17.7468514">
        <ele>33.7834</ele>
        <time>2013-05-13T18:39:36Z</time>
      </trkpt>
      <trkpt lat="59.9739973" lon="17.746836">
        <ele>33.7834</ele>
        <time>2013-05-13T18:39:37Z</time>
      </trkpt>
      <trkpt lat="59.9740098" lon="17.7468213">
        <ele>33.7834</ele>
        <time>2013-05-13T18:39:38Z</time>
      </trkpt>
      <trkpt lat="59.9740233" lon="17.7468076">
        <ele>34.2642</ele>
        <time>2013-05-13T18:39:39Z</time>
      </trkpt>
      <trkpt lat="59.9740356" lon="17.7467948">
        <ele>33.7834</ele>
        <time>2013-05-13T18:39:40Z</time>
      </trkpt>
      <trkpt lat="59.974048" lon="17.7467825">
        <ele>34.2642</ele>
        <time>2013-05-13T18:39:41Z</time>
      </trkpt>
      <trkpt lat="59.9740626" lon="17.7467674">
        <ele>34.2642</ele>
        <time>2013-05-13T18:39:42Z</time>
      </trkpt>
      <trkpt lat="59.9740761" lon="17.7467482">
        <ele>34.2642</ele>
        <time>2013-05-13T18:39:43Z</time>
      </trkpt>
      <trkpt lat="59.9740881" lon="17.7467312">
        <ele>33.7834</ele>
        <time>2013-05-13T18:39:44Z</time>
      </trkpt>
      <trkpt lat="59.9741008" lon="17.7467135">
        <ele>34.2642</ele>
        <time>2013-05-13T18:39:45Z</time>
      </trkpt>
      <trkpt lat="59.9741133" lon="17.7466985">
        <ele>34.2642</ele>
        <time>2013-05-13T18:39:46Z</time>
      </trkpt>
      <trkpt lat="59.9741253" lon="17.7466831">
        <ele>34.2642</ele>
        <time>2013-05-13T18:39:47Z</time>
      </trkpt>
      <trkpt lat="59.9741362" lon="17.7466649">
        <ele>34.2642</ele>
        <time>2013-05-13T18:39:48Z</time>
      </trkpt>
      <trkpt lat="59.9741428" lon="17.7466396">
        <ele>34.7449</ele>
        <time>2013-05-13T18:39:49Z</time>
      </trkpt>
      <trkpt lat="59.9741502" lon="17.7466085">
        <ele>35.2255</ele>
        <time>2013-05-13T18:39:50Z</time>
      </trkpt>
      <trkpt lat="59.9741625" lon="17.7465873">
        <ele>35.2255</ele>
        <time>2013-05-13T18:39:51Z</time>
      </trkpt>
      <trkpt lat="59.9741751" lon="17.7465655">
        <ele>35.2255</ele>
        <time>2013-05-13T18:39:52Z</time>
      </trkpt>
      <trkpt lat="59.9741901" lon="17.7465522">
        <ele>35.7061</ele>
        <time>2013-05-13T18:39:53Z</time>
      </trkpt>
      <trkpt lat="59.9742046" lon="17.7465381">
        <ele>36.1868</ele>
        <time>2013-05-13T18:39:54Z</time>
      </trkpt>
      <trkpt lat="59.9742192" lon="17.7465246">
        <ele>36.1868</ele>
        <time>2013-05-13T18:39:55Z</time>
      </trkpt>
      <trkpt lat="59.974233" lon="17.7465114">
        <ele>36.1868</ele>
        <time>2013-05-13T18:39:56Z</time>
      </trkpt>
      <trkpt lat="59.974247" lon="17.7464988">
        <ele>36.6675</ele>
        <time>2013-05-13T18:39:57Z</time>
      </trkpt>
      <trkpt lat="59.9742604" lon="17.7464853">
        <ele>36.6675</ele>
        <time>2013-05-13T18:39:58Z</time>
      </trkpt>
      <trkpt lat="59.9742735" lon="17.7464748">
        <ele>36.6675</ele>
        <time>2013-05-13T18:39:59Z</time>
      </trkpt>
      <trkpt lat="59.9742854" lon="17.7464633">
        <ele>36.6675</ele>
        <time>2013-05-13T18:40:00Z</time>
      </trkpt>
      <trkpt lat="59.9742987" lon="17.7464542">
        <ele>37.1481</ele>
        <time>2013-05-13T18:40:01Z</time>
      </trkpt>
      <trkpt lat="59.9743111" lon="17.7464434">
        <ele>37.1481</ele>
        <time>2013-05-13T18:40:02Z</time>
      </trkpt>
      <trkpt lat="59.9743227" lon="17.7464266">
        <ele>37.1481</ele>
        <time>2013-05-13T18:40:03Z</time>
      </trkpt>
      <trkpt lat="59.9743355" lon="17.7464082">
        <ele>36.6675</ele>
        <time>2013-05-13T18:40:04Z</time>
      </trkpt>
      <trkpt lat="59.9743468" lon="17.7463899">
        <ele>36.6675</ele>
        <time>2013-05-13T18:40:05Z</time>
      </trkpt>
      <trkpt lat="59.9743548" lon="17.7463707">
        <ele>36.1868</ele>
        <time>2013-05-13T18:40:06Z</time>
      </trkpt>
      <trkpt lat="59.9743665" lon="17.7463531">
        <ele>36.6675</ele>
        <time>2013-05-13T18:40:07Z</time>
      </trkpt>
      <trkpt lat="59.9743791" lon="17.7463355">
        <ele>36.6675</ele>
        <time>2013-05-13T18:40:08Z</time>
      </trkpt>
      <trkpt lat="59.97439" lon="17.7463184">
        <ele>36.1868</ele>
        <time>2013-05-13T18:40:09Z</time>
      </trkpt>
      <trkpt lat="59.9744038" lon="17.746302">
        <ele>36.6675</ele>
        <time>2013-05-13T18:40:10Z</time>
      </trkpt>
      <trkpt lat="59.9744154" lon="17.7462811">
        <ele>36.6675</ele>
        <time>2013-05-13T18:40:11Z</time>
      </trkpt>
      <trkpt lat="59.9744273" lon="17.7462634">
        <ele>36.6675</ele>
        <time>2013-05-13T18:40:12Z</time>
      </trkpt>
      <trkpt lat="59.9744417" lon="17.7462431">
        <ele>36.6675</ele>
        <time>2013-05-13T18:40:13Z</time>
      </trkpt>
      <trkpt lat="59.9744563" lon="17.7462204">
        <ele>37.1481</ele>
        <time>2013-05-13T18:40:14Z</time>
      </trkpt>
      <trkpt lat="59.9744691" lon="17.7462003">
        <ele>37.1481</ele>
        <time>2013-05-13T18:40:15Z</time>
      </trkpt>
      <trkpt lat="59.9744822" lon="17.7461864">
        <ele>37.1481</ele>
        <time>2013-05-13T18:40:16Z</time>
      </trkpt>
      <trkpt lat="59.9744958" lon="17.7461749">
        <ele>37.6287</ele>
        <time>2013-05-13T18:40:17Z</time>
      </trkpt>
      <trkpt lat="59.9745096" lon="17.746159">
        <ele>37.6287</ele>
        <time>2013-05-13T18:40:18Z</time>
      </trkpt>
      <trkpt lat="59.9745216" lon="17.7461421">
        <ele>37.6287</ele>
        <time>2013-05-13T18:40:19Z</time>
      </trkpt>
      <trkpt lat="59.9745325" lon="17.7461288">
        <ele>37.6287</ele>
        <time>2013-05-13T18:40:20Z</time>
      </trkpt>
      <trkpt lat="59.9745449" lon="17.7461162">
        <ele>37.6287</ele>
        <time>2013-05-13T18:40:21Z</time>
      </trkpt>
      <trkpt lat="59.9745558" lon="17.7461014">
        <ele>37.1481</ele>
        <time>2013-05-13T18:40:22Z</time>
      </trkpt>
      <trkpt lat="59.9745686" lon="17.746089">
        <ele>37.1481</ele>
        <time>2013-05-13T18:40:23Z</time>
      </trkpt>
      <trkpt lat="59.9745795" lon="17.7460754">
        <ele>37.1481</ele>
        <time>2013-05-13T18:40:24Z</time>
      </trkpt>
      <trkpt lat="59.9745896" lon="17.7460579">
        <ele>37.6287</ele>
        <time>2013-05-13T18:40:25Z</time>
      </trkpt>
      <trkpt lat="59.9746012" lon="17.7460439">
        <ele>37.1481</ele>
        <time>2013-05-13T18:40:26Z</time>
      </trkpt>
      <trkpt lat="59.9746116" lon="17.7460224">
        <ele>37.1481</ele>
        <time>2013-05-13T18:40:27Z</time>
      </trkpt>
      <trkpt lat="59.9746212" lon="17.7459971">
        <ele>37.1481</ele>
        <time>2013-05-13T18:40:28Z</time>
      </trkpt>
      <trkpt lat="59.9746293" lon="17.7459746">
        <ele>37.1481</ele>
        <time>2013-05-13T18:40:29Z</time>
      </trkpt>
      <trkpt lat="59.9746374" lon="17.7459517">
        <ele>37.6287</ele>
        <time>2013-05-13T18:40:30Z</time>
      </trkpt>
      <trkpt lat="59.9746469" lon="17.7459294">
        <ele>37.6287</ele>
        <time>2013-05-13T18:40:31Z</time>
      </trkpt>
      <trkpt lat="59.9746546" lon="17.7459082">
        <ele>37.1481</ele>
        <time>2013-05-13T18:40:32Z</time>
      </trkpt>
      <trkpt lat="59.9746638" lon="17.745886">
        <ele>36.6675</ele>
        <time>2013-05-13T18:40:33Z</time>
      </trkpt>
      <trkpt lat="59.974674" lon="17.7458627">
        <ele>36.6675</ele>
        <time>2013-05-13T18:40:34Z</time>
      </trkpt>
      <trkpt lat="59.9746828" lon="17.7458435">
        <ele>36.6675</ele>
        <time>2013-05-13T18:40:35Z</time>
      </trkpt>
      <trkpt lat="59.9746878" lon="17.7458144">
        <ele>36.1868</ele>
        <time>2013-05-13T18:40:36Z</time>
      </trkpt>
      <trkpt lat="59.9746951" lon="17.7457839">
        <ele>36.6675</ele>
        <time>2013-05-13T18:40:37Z</time>
      </trkpt>
      <trkpt lat="59.9747033" lon="17.7457489">
        <ele>36.6675</ele>
        <time>2013-05-13T18:40:38Z</time>
      </trkpt>
      <trkpt lat="59.9747138" lon="17.7457185">
        <ele>36.6675</ele>
        <time>2013-05-13T18:40:39Z</time>
      </trkpt>
      <trkpt lat="59.9747247" lon="17.7456945">
        <ele>36.6675</ele>
        <time>2013-05-13T18:40:40Z</time>
      </trkpt>
      <trkpt lat="59.9747355" lon="17.7456744">
        <ele>36.6675</ele>
        <time>2013-05-13T18:40:41Z</time>
      </trkpt>
      <trkpt lat="59.9747463" lon="17.7456533">
        <ele>36.1868</ele>
        <time>2013-05-13T18:40:42Z</time>
      </trkpt>
      <trkpt lat="59.9747583" lon="17.7456335">
        <ele>36.1868</ele>
        <time>2013-05-13T18:40:43Z</time>
      </trkpt>
      <trkpt lat="59.9747733" lon="17.745613">
        <ele>36.1868</ele>
        <time>2013-05-13T18:40:44Z</time>
      </trkpt>
      <trkpt lat="59.9747854" lon="17.7455927">
        <ele>36.6675</ele>
        <time>2013-05-13T18:40:45Z</time>
      </trkpt>
      <trkpt lat="59.9747972" lon="17.745569">
        <ele>36.6675</ele>
        <time>2013-05-13T18:40:46Z</time>
      </trkpt>
      <trkpt lat="59.9748069" lon="17.7455444">
        <ele>37.1481</ele>
        <time>2013-05-13T18:40:47Z</time>
      </trkpt>
      <trkpt lat="59.9748172" lon="17.7455229">
        <ele>36.6675</ele>
        <time>2013-05-13T18:40:48Z</time>
      </trkpt>
      <trkpt lat="59.9748277" lon="17.7454953">
        <ele>36.1868</ele>
        <time>2013-05-13T18:40:49Z</time>
      </trkpt>
      <trkpt lat="59.9748387" lon="17.7454746">
        <ele>35.7061</ele>
        <time>2013-05-13T18:40:50Z</time>
      </trkpt>
      <trkpt lat="59.97485" lon="17.7454497">
        <ele>36.6675</ele>
        <time>2013-05-13T18:40:51Z</time>
      </trkpt>
      <trkpt lat="59.9748588" lon="17.7454269">
        <ele>36.6675</ele>
        <time>2013-05-13T18:40:52Z</time>
      </trkpt>
      <trkpt lat="59.9748679" lon="17.7454088">
        <ele>36.6675</ele>
        <time>2013-05-13T18:40:53Z</time>
      </trkpt>
      <trkpt lat="59.9748779" lon="17.7453887">
        <ele>36.1868</ele>
        <time>2013-05-13T18:40:54Z</time>
      </trkpt>
      <trkpt lat="59.9748869" lon="17.7453689">
        <ele>36.1868</ele>
        <time>2013-05-13T18:40:55Z</time>
      </trkpt>
      <trkpt lat="59.9748966" lon="17.7453492">
        <ele>35.7061</ele>
        <time>2013-05-13T18:40:56Z</time>
      </trkpt>
      <trkpt lat="59.9749061" lon="17.7453197">
        <ele>35.2255</ele>
        <time>2013-05-13T18:40:57Z</time>
      </trkpt>
      <trkpt lat="59.9749137" lon="17.7452924">
        <ele>35.2255</ele>
        <time>2013-05-13T18:40:58Z</time>
      </trkpt>
      <trkpt lat="59.9749215" lon="17.7452653">
        <ele>35.2255</ele>
        <time>2013-05-13T18:40:59Z</time>
      </trkpt>
      <trkpt lat="59.9749303" lon="17.745241">
        <ele>35.2255</ele>
        <time>2013-05-13T18:41:00Z</time>
      </trkpt>
      <trkpt lat="59.9749395" lon="17.7452164">
        <ele>35.2255</ele>
        <time>2013-05-13T18:41:01Z</time>
      </trkpt>
      <trkpt lat="59.9749482" lon="17.7451917">
        <ele>34.7449</ele>
        <time>2013-05-13T18:41:02Z</time>
      </trkpt>
      <trkpt lat="59.9749591" lon="17.7451724">
        <ele>34.7449</ele>
        <time>2013-05-13T18:41:03Z</time>
      </trkpt>
      <trkpt lat="59.9749677" lon="17.7451451">
        <ele>34.2642</ele>
        <time>2013-05-13T18:41:04Z</time>
      </trkpt>
      <trkpt lat="59.9749746" lon="17.7451177">
        <ele>34.2642</ele>
        <time>2013-05-13T18:41:05Z</time>
      </trkpt>
      <trkpt lat="59.9749806" lon="17.7450887">
        <ele>33.7834</ele>
        <time>2013-05-13T18:41:06Z</time>
      </trkpt>
      <trkpt lat="59.9749871" lon="17.7450673">
        <ele>33.7834</ele>
        <time>2013-05-13T18:41:07Z</time>
      </trkpt>
      <trkpt lat="59.974994" lon="17.7450441">
        <ele>33.7834</ele>
        <time>2013-05-13T18:41:08Z</time>
      </trkpt>
      <trkpt lat="59.9750002" lon="17.7450188">
        <ele>34.2642</ele>
        <time>2013-05-13T18:41:09Z</time>
      </trkpt>
      <trkpt lat="59.9750047" lon="17.7449968">
        <ele>34.2642</ele>
        <time>2013-05-13T18:41:10Z</time>
      </trkpt>
      <trkpt lat="59.9750095" lon="17.744969">
        <ele>33.7834</ele>
        <time>2013-05-13T18:41:11Z</time>
      </trkpt>
      <trkpt lat="59.9750192" lon="17.74494">
        <ele>33.7834</ele>
        <time>2013-05-13T18:41:12Z</time>
      </trkpt>
      <trkpt lat="59.975027" lon="17.744915">
        <ele>33.7834</ele>
        <time>2013-05-13T18:41:13Z</time>
      </trkpt>
      <trkpt lat="59.9750353" lon="17.744894">
        <ele>33.7834</ele>
        <time>2013-05-13T18:41:14Z</time>
      </trkpt>
      <trkpt lat="59.9750435" lon="17.7448716">
        <ele>33.7834</ele>
        <time>2013-05-13T18:41:15Z</time>
      </trkpt>
      <trkpt lat="59.9750515" lon="17.7448462">
        <ele>33.7834</ele>
        <time>2013-05-13T18:41:16Z</time>
      </trkpt>
      <trkpt lat="59.9750604" lon="17.7448218">
        <ele>33.3029</ele>
        <time>2013-05-13T18:41:17Z</time>
      </trkpt>
      <trkpt lat="59.9750687" lon="17.7447948">
        <ele>33.3029</ele>
        <time>2013-05-13T18:41:18Z</time>
      </trkpt>
      <trkpt lat="59.9750767" lon="17.7447658">
        <ele>33.3029</ele>
        <time>2013-05-13T18:41:19Z</time>
      </trkpt>
      <trkpt lat="59.9750857" lon="17.744745">
        <ele>33.3029</ele>
        <time>2013-05-13T18:41:20Z</time>
      </trkpt>
      <trkpt lat="59.9750948" lon="17.7447207">
        <ele>33.3029</ele>
        <time>2013-05-13T18:41:21Z</time>
      </trkpt>
      <trkpt lat="59.9751023" lon="17.7446928">
        <ele>33.3029</ele>
        <time>2013-05-13T18:41:22Z</time>
      </trkpt>
      <trkpt lat="59.9751106" lon="17.7446686">
        <ele>33.3029</ele>
        <time>2013-05-13T18:41:23Z</time>
      </trkpt>
      <trkpt lat="59.9751163" lon="17.7446448">
        <ele>32.8223</ele>
        <time>2013-05-13T18:41:24Z</time>
      </trkpt>
      <trkpt lat="59.9751226" lon="17.7446157">
        <ele>33.3029</ele>
        <time>2013-05-13T18:41:25Z</time>
      </trkpt>
      <trkpt lat="59.9751306" lon="17.7445909">
        <ele>33.3029</ele>
        <time>2013-05-13T18:41:26Z</time>
      </trkpt>
      <trkpt lat="59.9751394" lon="17.7445679">
        <ele>33.3029</ele>
        <time>2013-05-13T18:41:27Z</time>
      </trkpt>
      <trkpt lat="59.9751468" lon="17.7445421">
        <ele>33.3029</ele>
        <time>2013-05-13T18:41:28Z</time>
      </trkpt>
      <trkpt lat="59.9751537" lon="17.7445164">
        <ele>33.3029</ele>
        <time>2013-05-13T18:41:29Z</time>
      </trkpt>
      <trkpt lat="59.9751613" lon="17.7444872">
        <ele>33.3029</ele>
        <time>2013-05-13T18:41:30Z</time>
      </trkpt>
      <trkpt lat="59.9751681" lon="17.7444591">
        <ele>33.3029</ele>
        <time>2013-05-13T18:41:31Z</time>
      </trkpt>
      <trkpt lat="59.9751747" lon="17.7444282">
        <ele>33.3029</ele>
        <time>2013-05-13T18:41:32Z</time>
      </trkpt>
      <trkpt lat="59.9751824" lon="17.7444006">
        <ele>33.3029</ele>
        <time>2013-05-13T18:41:33Z</time>
      </trkpt>
      <trkpt lat="59.9751882" lon="17.7443712">
        <ele>33.3029</ele>
        <time>2013-05-13T18:41:34Z</time>
      </trkpt>
      <trkpt lat="59.975194" lon="17.7443416">
        <ele>33.3029</ele>
        <time>2013-05-13T18:41:35Z</time>
      </trkpt>
      <trkpt lat="59.9752001" lon="17.7443102">
        <ele>33.3029</ele>
        <time>2013-05-13T18:41:36Z</time>
      </trkpt>
      <trkpt lat="59.9752054" lon="17.7442795">
        <ele>33.7834</ele>
        <time>2013-05-13T18:41:37Z</time>
      </trkpt>
      <trkpt lat="59.9752105" lon="17.7442499">
        <ele>33.7834</ele>
        <time>2013-05-13T18:41:38Z</time>
      </trkpt>
      <trkpt lat="59.9752157" lon="17.7442179">
        <ele>33.7834</ele>
        <time>2013-05-13T18:41:39Z</time>
      </trkpt>
      <trkpt lat="59.9752214" lon="17.7441905">
        <ele>34.2642</ele>
        <time>2013-05-13T18:41:40Z</time>
      </trkpt>
      <trkpt lat="59.9752277" lon="17.7441634">
        <ele>34.2642</ele>
        <time>2013-05-13T18:41:41Z</time>
      </trkpt>
      <trkpt lat="59.9752349" lon="17.7441354">
        <ele>34.7449</ele>
        <time>2013-05-13T18:41:42Z</time>
      </trkpt>
      <trkpt lat="59.9752411" lon="17.7441066">
        <ele>34.7449</ele>
        <time>2013-05-13T18:41:43Z</time>
      </trkpt>
      <trkpt lat="59.9752448" lon="17.7440729">
        <ele>34.7449</ele>
        <time>2013-05-13T18:41:44Z</time>
      </trkpt>
      <trkpt lat="59.975248" lon="17.7440449">
        <ele>34.2642</ele>
        <time>2013-05-13T18:41:45Z</time>
      </trkpt>
      <trkpt lat="59.9752538" lon="17.7440221">
        <ele>34.2642</ele>
        <time>2013-05-13T18:41:46Z</time>
      </trkpt>
      <trkpt lat="59.9752587" lon="17.7440024">
        <ele>34.2642</ele>
        <time>2013-05-13T18:41:47Z</time>
      </trkpt>
      <trkpt lat="59.9752629" lon="17.7439775">
        <ele>34.2642</ele>
        <time>2013-05-13T18:41:48Z</time>
      </trkpt>
      <trkpt lat="59.9752675" lon="17.7439527">
        <ele>34.2642</ele>
        <time>2013-05-13T18:41:49Z</time>
      </trkpt>
      <trkpt lat="59.9752705" lon="17.7439216">
        <ele>34.2642</ele>
        <time>2013-05-13T18:41:50Z</time>
      </trkpt>
      <trkpt lat="59.9752754" lon="17.7438983">
        <ele>34.2642</ele>
        <time>2013-05-13T18:41:51Z</time>
      </trkpt>
      <trkpt lat="59.9752801" lon="17.7438723">
        <ele>34.2642</ele>
        <time>2013-05-13T18:41:52Z</time>
      </trkpt>
      <trkpt lat="59.9752845" lon="17.7438439">
        <ele>34.2642</ele>
        <time>2013-05-13T18:41:53Z</time>
      </trkpt>
      <trkpt lat="59.9752886" lon="17.743816">
        <ele>34.2642</ele>
        <time>2013-05-13T18:41:54Z</time>
      </trkpt>
      <trkpt lat="59.975293" lon="17.7437885">
        <ele>34.2642</ele>
        <time>2013-05-13T18:41:55Z</time>
      </trkpt>
      <trkpt lat="59.975299" lon="17.7437565">
        <ele>34.2642</ele>
        <time>2013-05-13T18:41:56Z</time>
      </trkpt>
      <trkpt lat="59.9753018" lon="17.743732">
        <ele>34.2642</ele>
        <time>2013-05-13T18:41:57Z</time>
      </trkpt>
      <trkpt lat="59.9753028" lon="17.7437066">
        <ele>34.7449</ele>
        <time>2013-05-13T18:41:58Z</time>
      </trkpt>
      <trkpt lat="59.9753051" lon="17.743679">
        <ele>34.7449</ele>
        <time>2013-05-13T18:41:59Z</time>
      </trkpt>
      <trkpt lat="59.9753089" lon="17.7436505">
        <ele>34.7449</ele>
        <time>2013-05-13T18:42:00Z</time>
      </trkpt>
      <trkpt lat="59.9753127" lon="17.7436207">
        <ele>34.7449</ele>
        <time>2013-05-13T18:42:01Z</time>
      </trkpt>
      <trkpt lat="59.9753182" lon="17.7435909">
        <ele>34.7449</ele>
        <time>2013-05-13T18:42:02Z</time>
      </trkpt>
      <trkpt lat="59.9753239" lon="17.7435626">
        <ele>34.7449</ele>
        <time>2013-05-13T18:42:03Z</time>
      </trkpt>
      <trkpt lat="59.9753287" lon="17.7435339">
        <ele>35.2255</ele>
        <time>2013-05-13T18:42:04Z</time>
      </trkpt>
      <trkpt lat="59.9753321" lon="17.743505">
        <ele>34.7449</ele>
        <time>2013-05-13T18:42:05Z</time>
      </trkpt>
      <trkpt lat="59.9753364" lon="17.7434747">
        <ele>34.7449</ele>
        <time>2013-05-13T18:42:06Z</time>
      </trkpt>
      <trkpt lat="59.9753419" lon="17.7434441">
        <ele>34.7449</ele>
        <time>2013-05-13T18:42:07Z</time>
      </trkpt>
      <trkpt lat="59.9753478" lon="17.7434191">
        <ele>34.2642</ele>
        <time>2013-05-13T18:42:08Z</time>
      </trkpt>
      <trkpt lat="59.9753521" lon="17.7433859">
        <ele>34.2642</ele>
        <time>2013-05-13T18:42:09Z</time>
      </trkpt>
      <trkpt lat="59.9753587" lon="17.743358">
        <ele>34.7449</ele>
        <time>2013-05-13T18:42:10Z</time>
      </trkpt>
      <trkpt lat="59.9753642" lon="17.7433341">
        <ele>33.7834</ele>
        <time>2013-05-13T18:42:11Z</time>
      </trkpt>
      <trkpt lat="59.9753688" lon="17.7433093">
        <ele>33.7834</ele>
        <time>2013-05-13T18:42:12Z</time>
      </trkpt>
      <trkpt lat="59.9753742" lon="17.7432856">
        <ele>33.7834</ele>
        <time>2013-05-13T18:42:13Z</time>
      </trkpt>
      <trkpt lat="59.9753799" lon="17.7432609">
        <ele>33.7834</ele>
        <time>2013-05-13T18:42:14Z</time>
      </trkpt>
      <trkpt lat="59.9753857" lon="17.7432361">
        <ele>33.7834</ele>
        <time>2013-05-13T18:42:15Z</time>
      </trkpt>
      <trkpt lat="59.9753933" lon="17.7432105">
        <ele>33.7834</ele>
        <time>2013-05-13T18:42:16Z</time>
      </trkpt>
      <trkpt lat="59.975401" lon="17.7431871">
        <ele>33.7834</ele>
        <time>2013-05-13T18:42:17Z</time>
      </trkpt>
      <trkpt lat="59.9754074" lon="17.7431615">
        <ele>33.7834</ele>
        <time>2013-05-13T18:42:18Z</time>
      </trkpt>
      <trkpt lat="59.9754146" lon="17.743143">
        <ele>34.2642</ele>
        <time>2013-05-13T18:42:19Z</time>
      </trkpt>
      <trkpt lat="59.9754236" lon="17.7431204">
        <ele>34.7449</ele>
        <time>2013-05-13T18:42:20Z</time>
      </trkpt>
      <trkpt lat="59.975431" lon="17.7430932">
        <ele>34.7449</ele>
        <time>2013-05-13T18:42:21Z</time>
      </trkpt>
      <trkpt lat="59.9754373" lon="17.7430653">
        <ele>34.7449</ele>
        <time>2013-05-13T18:42:22Z</time>
      </trkpt>
      <trkpt lat="59.9754452" lon="17.743039">
        <ele>35.2255</ele>
        <time>2013-05-13T18:42:23Z</time>
      </trkpt>
      <trkpt lat="59.9754529" lon="17.7430172">
        <ele>35.2255</ele>
        <time>2013-05-13T18:42:24Z</time>
      </trkpt>
      <trkpt lat="59.9754597" lon="17.7429924">
        <ele>35.2255</ele>
        <time>2013-05-13T18:42:25Z</time>
      </trkpt>
      <trkpt lat="59.975467" lon="17.7429683">
        <ele>35.2255</ele>
        <time>2013-05-13T18:42:26Z</time>
      </trkpt>
      <trkpt lat="59.9754756" lon="17.7429432">
        <ele>35.2255</ele>
        <time>2013-05-13T18:42:27Z</time>
      </trkpt>
      <trkpt lat="59.9754849" lon="17.7429251">
        <ele>35.2255</ele>
        <time>2013-05-13T18:42:28Z</time>
      </trkpt>
      <trkpt lat="59.9754917" lon="17.7428985">
        <ele>35.2255</ele>
        <time>2013-05-13T18:42:29Z</time>
      </trkpt>
      <trkpt lat="59.975498" lon="17.742874">
        <ele>35.7061</ele>
        <time>2013-05-13T18:42:30Z</time>
      </trkpt>
      <trkpt lat="59.9755049" lon="17.7428533">
        <ele>35.7061</ele>
        <time>2013-05-13T18:42:31Z</time>
      </trkpt>
      <trkpt lat="59.9755118" lon="17.7428263">
        <ele>35.2255</ele>
        <time>2013-05-13T18:42:32Z</time>
      </trkpt>
      <trkpt lat="59.9755198" lon="17.7428026">
        <ele>35.2255</ele>
        <time>2013-05-13T18:42:33Z</time>
      </trkpt>
      <trkpt lat="59.9755268" lon="17.7427771">
        <ele>35.7061</ele>
        <time>2013-05-13T18:42:34Z</time>
      </trkpt>
      <trkpt lat="59.9755308" lon="17.7427448">
        <ele>35.7061</ele>
        <time>2013-05-13T18:42:35Z</time>
      </trkpt>
      <trkpt lat="59.9755363" lon="17.7427188">
        <ele>36.1868</ele>
        <time>2013-05-13T18:42:36Z</time>
      </trkpt>
      <trkpt lat="59.9755411" lon="17.7426901">
        <ele>36.1868</ele>
        <time>2013-05-13T18:42:37Z</time>
      </trkpt>
      <trkpt lat="59.9755482" lon="17.7426597">
        <ele>36.1868</ele>
        <time>2013-05-13T18:42:38Z</time>
      </trkpt>
      <trkpt lat="59.9755543" lon="17.7426365">
        <ele>36.1868</ele>
        <time>2013-05-13T18:42:39Z</time>
      </trkpt>
      <trkpt lat="59.975558" lon="17.7426068">
        <ele>35.7061</ele>
        <time>2013-05-13T18:42:40Z</time>
      </trkpt>
      <trkpt lat="59.9755629" lon="17.7425733">
        <ele>35.7061</ele>
        <time>2013-05-13T18:42:41Z</time>
      </trkpt>
      <trkpt lat="59.975568" lon="17.7425468">
        <ele>35.7061</ele>
        <time>2013-05-13T18:42:42Z</time>
      </trkpt>
      <trkpt lat="59.9755732" lon="17.742521">
        <ele>35.7061</ele>
        <time>2013-05-13T18:42:43Z</time>
      </trkpt>
      <trkpt lat="59.9755784" lon="17.7424969">
        <ele>35.7061</ele>
        <time>2013-05-13T18:42:44Z</time>
      </trkpt>
      <trkpt lat="59.975584" lon="17.7424696">
        <ele>35.7061</ele>
        <time>2013-05-13T18:42:45Z</time>
      </trkpt>
      <trkpt lat="59.9755913" lon="17.7424473">
        <ele>35.7061</ele>
        <time>2013-05-13T18:42:46Z</time>
      </trkpt>
      <trkpt lat="59.9755994" lon="17.7424278">
        <ele>35.2255</ele>
        <time>2013-05-13T18:42:47Z</time>
      </trkpt>
      <trkpt lat="59.9756068" lon="17.7424016">
        <ele>35.7061</ele>
        <time>2013-05-13T18:42:48Z</time>
      </trkpt>
      <trkpt lat="59.9756125" lon="17.7423746">
        <ele>35.7061</ele>
        <time>2013-05-13T18:42:49Z</time>
      </trkpt>
      <trkpt lat="59.9756192" lon="17.7423551">
        <ele>35.7061</ele>
        <time>2013-05-13T18:42:50Z</time>
      </trkpt>
      <trkpt lat="59.975625" lon="17.7423307">
        <ele>35.7061</ele>
        <time>2013-05-13T18:42:51Z</time>
      </trkpt>
      <trkpt lat="59.9756297" lon="17.7423044">
        <ele>35.7061</ele>
        <time>2013-05-13T18:42:52Z</time>
      </trkpt>
      <trkpt lat="59.9756364" lon="17.7422803">
        <ele>35.7061</ele>
        <time>2013-05-13T18:42:53Z</time>
      </trkpt>
      <trkpt lat="59.9756441" lon="17.7422572">
        <ele>36.1868</ele>
        <time>2013-05-13T18:42:54Z</time>
      </trkpt>
      <trkpt lat="59.9756543" lon="17.7422312">
        <ele>36.1868</ele>
        <time>2013-05-13T18:42:55Z</time>
      </trkpt>
      <trkpt lat="59.9756601" lon="17.7422009">
        <ele>35.7061</ele>
        <time>2013-05-13T18:42:56Z</time>
      </trkpt>
      <trkpt lat="59.9756657" lon="17.7421754">
        <ele>35.7061</ele>
        <time>2013-05-13T18:42:57Z</time>
      </trkpt>
      <trkpt lat="59.9756729" lon="17.742149">
        <ele>35.2255</ele>
        <time>2013-05-13T18:42:58Z</time>
      </trkpt>
      <trkpt lat="59.9756786" lon="17.7421251">
        <ele>35.2255</ele>
        <time>2013-05-13T18:42:59Z</time>
      </trkpt>
      <trkpt lat="59.975684" lon="17.7421006">
        <ele>35.2255</ele>
        <time>2013-05-13T18:43:00Z</time>
      </trkpt>
      <trkpt lat="59.9756901" lon="17.7420775">
        <ele>35.2255</ele>
        <time>2013-05-13T18:43:01Z</time>
      </trkpt>
      <trkpt lat="59.9756964" lon="17.7420536">
        <ele>35.2255</ele>
        <time>2013-05-13T18:43:02Z</time>
      </trkpt>
      <trkpt lat="59.9757033" lon="17.7420294">
        <ele>34.7449</ele>
        <time>2013-05-13T18:43:03Z</time>
      </trkpt>
      <trkpt lat="59.9757103" lon="17.7420008">
        <ele>34.7449</ele>
        <time>2013-05-13T18:43:04Z</time>
      </trkpt>
      <trkpt lat="59.9757187" lon="17.7419771">
        <ele>34.2642</ele>
        <time>2013-05-13T18:43:05Z</time>
      </trkpt>
      <trkpt lat="59.9757276" lon="17.7419504">
        <ele>34.2642</ele>
        <time>2013-05-13T18:43:06Z</time>
      </trkpt>
      <trkpt lat="59.9757341" lon="17.7419252">
        <ele>34.2642</ele>
        <time>2013-05-13T18:43:07Z</time>
      </trkpt>
      <trkpt lat="59.9757413" lon="17.7419003">
        <ele>33.3029</ele>
        <time>2013-05-13T18:43:08Z</time>
      </trkpt>
      <trkpt lat="59.9757463" lon="17.7418765">
        <ele>32.8223</ele>
        <time>2013-05-13T18:43:09Z</time>
      </trkpt>
      <trkpt lat="59.9757529" lon="17.7418519">
        <ele>32.8223</ele>
        <time>2013-05-13T18:43:10Z</time>
      </trkpt>
      <trkpt lat="59.9757589" lon="17.7418273">
        <ele>32.8223</ele>
        <time>2013-05-13T18:43:11Z</time>
      </trkpt>
      <trkpt lat="59.9757643" lon="17.7418041">
        <ele>32.3416</ele>
        <time>2013-05-13T18:43:12Z</time>
      </trkpt>
      <trkpt lat="59.9757703" lon="17.7417813">
        <ele>32.3416</ele>
        <time>2013-05-13T18:43:13Z</time>
      </trkpt>
      <trkpt lat="59.9757755" lon="17.7417579">
        <ele>32.3416</ele>
        <time>2013-05-13T18:43:14Z</time>
      </trkpt>
      <trkpt lat="59.9757817" lon="17.7417321">
        <ele>32.3416</ele>
        <time>2013-05-13T18:43:15Z</time>
      </trkpt>
      <trkpt lat="59.9757887" lon="17.7417066">
        <ele>32.3416</ele>
        <time>2013-05-13T18:43:16Z</time>
      </trkpt>
      <trkpt lat="59.9757943" lon="17.7416715">
        <ele>32.3416</ele>
        <time>2013-05-13T18:43:17Z</time>
      </trkpt>
      <trkpt lat="59.975799" lon="17.7416429">
        <ele>32.3416</ele>
        <time>2013-05-13T18:43:18Z</time>
      </trkpt>
      <trkpt lat="59.9758043" lon="17.741617">
        <ele>32.3416</ele>
        <time>2013-05-13T18:43:19Z</time>
      </trkpt>
      <trkpt lat="59.9758114" lon="17.7415919">
        <ele>32.3416</ele>
        <time>2013-05-13T18:43:20Z</time>
      </trkpt>
      <trkpt lat="59.9758182" lon="17.741562">
        <ele>32.3416</ele>
        <time>2013-05-13T18:43:21Z</time>
      </trkpt>
      <trkpt lat="59.9758228" lon="17.7415367">
        <ele>32.3416</ele>
        <time>2013-05-13T18:43:22Z</time>
      </trkpt>
      <trkpt lat="59.975828" lon="17.7415078">
        <ele>32.3416</ele>
        <time>2013-05-13T18:43:23Z</time>
      </trkpt>
      <trkpt lat="59.9758342" lon="17.7414819">
        <ele>32.8223</ele>
        <time>2013-05-13T18:43:24Z</time>
      </trkpt>
      <trkpt lat="59.9758419" lon="17.7414547">
        <ele>32.8223</ele>
        <time>2013-05-13T18:43:25Z</time>
      </trkpt>
      <trkpt lat="59.9758508" lon="17.7414365">
        <ele>33.3029</ele>
        <time>2013-05-13T18:43:26Z</time>
      </trkpt>
      <trkpt lat="59.9758596" lon="17.7414207">
        <ele>33.3029</ele>
        <time>2013-05-13T18:43:27Z</time>
      </trkpt>
      <trkpt lat="59.9758669" lon="17.7414093">
        <ele>32.8223</ele>
        <time>2013-05-13T18:43:28Z</time>
      </trkpt>
      <trkpt lat="59.9758718" lon="17.7413923">
        <ele>32.8223</ele>
        <time>2013-05-13T18:43:29Z</time>
      </trkpt>
      <trkpt lat="59.9758766" lon="17.7413663">
        <ele>32.3416</ele>
        <time>2013-05-13T18:43:30Z</time>
      </trkpt>
      <trkpt lat="59.9758803" lon="17.7413399">
        <ele>32.3416</ele>
        <time>2013-05-13T18:43:31Z</time>
      </trkpt>
      <trkpt lat="59.9758845" lon="17.7413094">
        <ele>32.3416</ele>
        <time>2013-05-13T18:43:32Z</time>
      </trkpt>
      <trkpt lat="59.9758896" lon="17.7412787">
        <ele>32.3416</ele>
        <time>2013-05-13T18:43:33Z</time>
      </trkpt>
      <trkpt lat="59.975896" lon="17.7412542">
        <ele>32.8223</ele>
        <time>2013-05-13T18:43:34Z</time>
      </trkpt>
      <trkpt lat="59.9759011" lon="17.741225">
        <ele>33.3029</ele>
        <time>2013-05-13T18:43:35Z</time>
      </trkpt>
      <trkpt lat="59.9759056" lon="17.7411952">
        <ele>33.3029</ele>
        <time>2013-05-13T18:43:36Z</time>
      </trkpt>
      <trkpt lat="59.9759109" lon="17.7411658">
        <ele>33.3029</ele>
        <time>2013-05-13T18:43:37Z</time>
      </trkpt>
      <trkpt lat="59.9759185" lon="17.7411424">
        <ele>32.8223</ele>
        <time>2013-05-13T18:43:38Z</time>
      </trkpt>
      <trkpt lat="59.9759258" lon="17.7411186">
        <ele>32.8223</ele>
        <time>2013-05-13T18:43:39Z</time>
      </trkpt>
      <trkpt lat="59.975934" lon="17.7410949">
        <ele>32.3416</ele>
        <time>2013-05-13T18:43:40Z</time>
      </trkpt>
      <trkpt lat="59.9759409" lon="17.7410679">
        <ele>31.8607</ele>
        <time>2013-05-13T18:43:41Z</time>
      </trkpt>
      <trkpt lat="59.9759471" lon="17.741045">
        <ele>32.3416</ele>
        <time>2013-05-13T18:43:42Z</time>
      </trkpt>
      <trkpt lat="59.9759512" lon="17.7410177">
        <ele>32.3416</ele>
        <time>2013-05-13T18:43:43Z</time>
      </trkpt>
      <trkpt lat="59.9759554" lon="17.7409913">
        <ele>32.3416</ele>
        <time>2013-05-13T18:43:44Z</time>
      </trkpt>
      <trkpt lat="59.9759606" lon="17.7409644">
        <ele>32.3416</ele>
        <time>2013-05-13T18:43:45Z</time>
      </trkpt>
      <trkpt lat="59.9759671" lon="17.7409379">
        <ele>32.8223</ele>
        <time>2013-05-13T18:43:46Z</time>
      </trkpt>
      <trkpt lat="59.9759736" lon="17.7409115">
        <ele>32.8223</ele>
        <time>2013-05-13T18:43:47Z</time>
      </trkpt>
      <trkpt lat="59.9759782" lon="17.7408866">
        <ele>32.8223</ele>
        <time>2013-05-13T18:43:48Z</time>
      </trkpt>
      <trkpt lat="59.9759835" lon="17.7408626">
        <ele>32.8223</ele>
        <time>2013-05-13T18:43:49Z</time>
      </trkpt>
      <trkpt lat="59.9759886" lon="17.7408429">
        <ele>33.3029</ele>
        <time>2013-05-13T18:43:50Z</time>
      </trkpt>
      <trkpt lat="59.9759928" lon="17.7408204">
        <ele>32.8223</ele>
        <time>2013-05-13T18:43:51Z</time>
      </trkpt>
      <trkpt lat="59.9759998" lon="17.7407898">
        <ele>32.3416</ele>
        <time>2013-05-13T18:43:52Z</time>
      </trkpt>
      <trkpt lat="59.9760081" lon="17.7407695">
        <ele>31.8607</ele>
        <time>2013-05-13T18:43:53Z</time>
      </trkpt>
      <trkpt lat="59.976016" lon="17.7407416">
        <ele>31.8607</ele>
        <time>2013-05-13T18:43:54Z</time>
      </trkpt>
      <trkpt lat="59.9760227" lon="17.7407185">
        <ele>31.3801</ele>
        <time>2013-05-13T18:43:55Z</time>
      </trkpt>
      <trkpt lat="59.9760303" lon="17.7406947">
        <ele>31.3801</ele>
        <time>2013-05-13T18:43:56Z</time>
      </trkpt>
      <trkpt lat="59.9760383" lon="17.7406771">
        <ele>30.8995</ele>
        <time>2013-05-13T18:43:57Z</time>
      </trkpt>
      <trkpt lat="59.9760471" lon="17.7406557">
        <ele>31.3801</ele>
        <time>2013-05-13T18:43:58Z</time>
      </trkpt>
      <trkpt lat="59.9760543" lon="17.7406351">
        <ele>31.3801</ele>
        <time>2013-05-13T18:43:59Z</time>
      </trkpt>
      <trkpt lat="59.9760622" lon="17.7406124">
        <ele>31.3801</ele>
        <time>2013-05-13T18:44:00Z</time>
      </trkpt>
      <trkpt lat="59.9760682" lon="17.7405903">
        <ele>31.8607</ele>
        <time>2013-05-13T18:44:01Z</time>
      </trkpt>
      <trkpt lat="59.976072" lon="17.7405697">
        <ele>31.8607</ele>
        <time>2013-05-13T18:44:02Z</time>
      </trkpt>
      <trkpt lat="59.9760768" lon="17.7405505">
        <ele>31.8607</ele>
        <time>2013-05-13T18:44:03Z</time>
      </trkpt>
      <trkpt lat="59.976087" lon="17.7405298">
        <ele>31.8607</ele>
        <time>2013-05-13T18:44:04Z</time>
      </trkpt>
      <trkpt lat="59.9760963" lon="17.7405093">
        <ele>32.3416</ele>
        <time>2013-05-13T18:44:05Z</time>
      </trkpt>
      <trkpt lat="59.9761032" lon="17.740485">
        <ele>31.8607</ele>
        <time>2013-05-13T18:44:06Z</time>
      </trkpt>
      <trkpt lat="59.9761099" lon="17.7404664">
        <ele>32.3416</ele>
        <time>2013-05-13T18:44:07Z</time>
      </trkpt>
      <trkpt lat="59.9761176" lon="17.7404478">
        <ele>32.3416</ele>
        <time>2013-05-13T18:44:08Z</time>
      </trkpt>
      <trkpt lat="59.9761269" lon="17.7404291">
        <ele>32.3416</ele>
        <time>2013-05-13T18:44:09Z</time>
      </trkpt>
      <trkpt lat="59.9761369" lon="17.7404112">
        <ele>32.3416</ele>
        <time>2013-05-13T18:44:10Z</time>
      </trkpt>
      <trkpt lat="59.976146" lon="17.7403917">
        <ele>32.3416</ele>
        <time>2013-05-13T18:44:11Z</time>
      </trkpt>
      <trkpt lat="59.9761536" lon="17.7403704">
        <ele>31.8607</ele>
        <time>2013-05-13T18:44:12Z</time>
      </trkpt>
      <trkpt lat="59.9761594" lon="17.7403447">
        <ele>32.3416</ele>
        <time>2013-05-13T18:44:13Z</time>
      </trkpt>
      <trkpt lat="59.9761678" lon="17.7403174">
        <ele>32.3416</ele>
        <time>2013-05-13T18:44:14Z</time>
      </trkpt>
      <trkpt lat="59.976174" lon="17.7402883">
        <ele>32.8223</ele>
        <time>2013-05-13T18:44:15Z</time>
      </trkpt>
      <trkpt lat="59.9761818" lon="17.7402608">
        <ele>32.8223</ele>
        <time>2013-05-13T18:44:16Z</time>
      </trkpt>
      <trkpt lat="59.9761901" lon="17.7402371">
        <ele>32.8223</ele>
        <time>2013-05-13T18:44:17Z</time>
      </trkpt>
      <trkpt lat="59.9761972" lon="17.7402127">
        <ele>33.3029</ele>
        <time>2013-05-13T18:44:18Z</time>
      </trkpt>
      <trkpt lat="59.9762051" lon="17.7401883">
        <ele>33.7834</ele>
        <time>2013-05-13T18:44:19Z</time>
      </trkpt>
      <trkpt lat="59.9762139" lon="17.7401655">
        <ele>33.7834</ele>
        <time>2013-05-13T18:44:20Z</time>
      </trkpt>
      <trkpt lat="59.9762203" lon="17.7401349">
        <ele>33.7834</ele>
        <time>2013-05-13T18:44:21Z</time>
      </trkpt>
      <trkpt lat="59.9762285" lon="17.7401116">
        <ele>33.7834</ele>
        <time>2013-05-13T18:44:22Z</time>
      </trkpt>
      <trkpt lat="59.9762383" lon="17.7400881">
        <ele>33.7834</ele>
        <time>2013-05-13T18:44:23Z</time>
      </trkpt>
      <trkpt lat="59.9762471" lon="17.7400639">
        <ele>33.7834</ele>
        <time>2013-05-13T18:44:24Z</time>
      </trkpt>
      <trkpt lat="59.9762543" lon="17.7400415">
        <ele>34.2642</ele>
        <time>2013-05-13T18:44:25Z</time>
      </trkpt>
      <trkpt lat="59.976259" lon="17.7400131">
        <ele>34.2642</ele>
        <time>2013-05-13T18:44:26Z</time>
      </trkpt>
      <trkpt lat="59.9762638" lon="17.7399852">
        <ele>33.7834</ele>
        <time>2013-05-13T18:44:27Z</time>
      </trkpt>
      <trkpt lat="59.9762717" lon="17.7399548">
        <ele>33.3029</ele>
        <time>2013-05-13T18:44:28Z</time>
      </trkpt>
      <trkpt lat="59.9762833" lon="17.7399354">
        <ele>32.8223</ele>
        <time>2013-05-13T18:44:29Z</time>
      </trkpt>
      <trkpt lat="59.9762901" lon="17.7398941">
        <ele>33.3029</ele>
        <time>2013-05-13T18:44:30Z</time>
      </trkpt>
      <trkpt lat="59.9763003" lon="17.739877">
        <ele>32.8223</ele>
        <time>2013-05-13T18:44:31Z</time>
      </trkpt>
      <trkpt lat="59.9763099" lon="17.7398515">
        <ele>32.3416</ele>
        <time>2013-05-13T18:44:32Z</time>
      </trkpt>
      <trkpt lat="59.9763194" lon="17.7398308">
        <ele>32.8223</ele>
        <time>2013-05-13T18:44:33Z</time>
      </trkpt>
      <trkpt lat="59.9763273" lon="17.7398025">
        <ele>32.8223</ele>
        <time>2013-05-13T18:44:34Z</time>
      </trkpt>
      <trkpt lat="59.9763346" lon="17.7397764">
        <ele>33.3029</ele>
        <time>2013-05-13T18:44:35Z</time>
      </trkpt>
      <trkpt lat="59.9763409" lon="17.7397507">
        <ele>33.3029</ele>
        <time>2013-05-13T18:44:36Z</time>
      </trkpt>
      <trkpt lat="59.976347" lon="17.739724">
        <ele>33.7834</ele>
        <time>2013-05-13T18:44:37Z</time>
      </trkpt>
      <trkpt lat="59.9763552" lon="17.7396962">
        <ele>33.7834</ele>
        <time>2013-05-13T18:44:38Z</time>
      </trkpt>
      <trkpt lat="59.976363" lon="17.7396781">
        <ele>34.2642</ele>
        <time>2013-05-13T18:44:39Z</time>
      </trkpt>
      <trkpt lat="59.9763726" lon="17.7396549">
        <ele>34.2642</ele>
        <time>2013-05-13T18:44:40Z</time>
      </trkpt>
      <trkpt lat="59.9763823" lon="17.7396366">
        <ele>34.2642</ele>
        <time>2013-05-13T18:44:41Z</time>
      </trkpt>
      <trkpt lat="59.9763891" lon="17.7396139">
        <ele>35.2255</ele>
        <time>2013-05-13T18:44:42Z</time>
      </trkpt>
      <trkpt lat="59.9763932" lon="17.7395903">
        <ele>35.7061</ele>
        <time>2013-05-13T18:44:43Z</time>
      </trkpt>
      <trkpt lat="59.9764013" lon="17.7395734">
        <ele>36.1868</ele>
        <time>2013-05-13T18:44:44Z</time>
      </trkpt>
      <trkpt lat="59.9764103" lon="17.7395589">
        <ele>36.1868</ele>
        <time>2013-05-13T18:44:45Z</time>
      </trkpt>
      <trkpt lat="59.9764205" lon="17.7395453">
        <ele>35.7061</ele>
        <time>2013-05-13T18:44:46Z</time>
      </trkpt>
      <trkpt lat="59.9764319" lon="17.7395397">
        <ele>35.2255</ele>
        <time>2013-05-13T18:44:47Z</time>
      </trkpt>
      <trkpt lat="59.9764456" lon="17.7395351">
        <ele>34.7449</ele>
        <time>2013-05-13T18:44:48Z</time>
      </trkpt>
      <trkpt lat="59.97646" lon="17.7395284">
        <ele>34.2642</ele>
        <time>2013-05-13T18:44:49Z</time>
      </trkpt>
      <trkpt lat="59.9764697" lon="17.7395197">
        <ele>33.7834</ele>
        <time>2013-05-13T18:44:50Z</time>
      </trkpt>
      <trkpt lat="59.9764808" lon="17.739506">
        <ele>33.3029</ele>
        <time>2013-05-13T18:44:51Z</time>
      </trkpt>
      <trkpt lat="59.9764924" lon="17.7394943">
        <ele>32.8223</ele>
        <time>2013-05-13T18:44:52Z</time>
      </trkpt>
      <trkpt lat="59.9765043" lon="17.7394858">
        <ele>32.8223</ele>
        <time>2013-05-13T18:44:53Z</time>
      </trkpt>
      <trkpt lat="59.9765206" lon="17.739478">
        <ele>32.8223</ele>
        <time>2013-05-13T18:44:54Z</time>
      </trkpt>
      <trkpt lat="59.9765361" lon="17.7394728">
        <ele>31.8607</ele>
        <time>2013-05-13T18:44:55Z</time>
      </trkpt>
      <trkpt lat="59.9765478" lon="17.7394657">
        <ele>30.8995</ele>
        <time>2013-05-13T18:44:56Z</time>
      </trkpt>
      <trkpt lat="59.9765613" lon="17.7394528">
        <ele>31.3801</ele>
        <time>2013-05-13T18:44:57Z</time>
      </trkpt>
      <trkpt lat="59.976576" lon="17.7394548">
        <ele>30.8995</ele>
        <time>2013-05-13T18:44:58Z</time>
      </trkpt>
      <trkpt lat="59.9765911" lon="17.7394517">
        <ele>31.3801</ele>
        <time>2013-05-13T18:44:59Z</time>
      </trkpt>
      <trkpt lat="59.9766056" lon="17.7394455">
        <ele>31.8607</ele>
        <time>2013-05-13T18:45:00Z</time>
      </trkpt>
      <trkpt lat="59.9766185" lon="17.7394407">
        <ele>31.8607</ele>
        <time>2013-05-13T18:45:01Z</time>
      </trkpt>
      <trkpt lat="59.9766305" lon="17.7394289">
        <ele>31.8607</ele>
        <time>2013-05-13T18:45:02Z</time>
      </trkpt>
      <trkpt lat="59.9766423" lon="17.7394201">
        <ele>31.8607</ele>
        <time>2013-05-13T18:45:03Z</time>
      </trkpt>
      <trkpt lat="59.9766531" lon="17.7394107">
        <ele>31.8607</ele>
        <time>2013-05-13T18:45:04Z</time>
      </trkpt>
      <trkpt lat="59.9766642" lon="17.739408">
        <ele>31.8607</ele>
        <time>2013-05-13T18:45:05Z</time>
      </trkpt>
      <trkpt lat="59.9766774" lon="17.7394087">
        <ele>31.8607</ele>
        <time>2013-05-13T18:45:06Z</time>
      </trkpt>
      <trkpt lat="59.9766889" lon="17.7394055">
        <ele>31.8607</ele>
        <time>2013-05-13T18:45:07Z</time>
      </trkpt>
      <trkpt lat="59.9767022" lon="17.7394014">
        <ele>32.3416</ele>
        <time>2013-05-13T18:45:08Z</time>
      </trkpt>
      <trkpt lat="59.9767164" lon="17.7393963">
        <ele>32.8223</ele>
        <time>2013-05-13T18:45:09Z</time>
      </trkpt>
      <trkpt lat="59.9767274" lon="17.7393848">
        <ele>33.3029</ele>
        <time>2013-05-13T18:45:10Z</time>
      </trkpt>
      <trkpt lat="59.9767419" lon="17.7393779">
        <ele>33.7834</ele>
        <time>2013-05-13T18:45:11Z</time>
      </trkpt>
      <trkpt lat="59.9767584" lon="17.7393693">
        <ele>34.2642</ele>
        <time>2013-05-13T18:45:12Z</time>
      </trkpt>
      <trkpt lat="59.9767732" lon="17.7393629">
        <ele>35.7061</ele>
        <time>2013-05-13T18:45:13Z</time>
      </trkpt>
      <trkpt lat="59.9767869" lon="17.7393553">
        <ele>35.7061</ele>
        <time>2013-05-13T18:45:14Z</time>
      </trkpt>
      <trkpt lat="59.9767993" lon="17.7393363">
        <ele>36.1868</ele>
        <time>2013-05-13T18:45:15Z</time>
      </trkpt>
      <trkpt lat="59.9768143" lon="17.739327">
        <ele>36.1868</ele>
        <time>2013-05-13T18:45:16Z</time>
      </trkpt>
      <trkpt lat="59.9768274" lon="17.7393155">
        <ele>36.6675</ele>
        <time>2013-05-13T18:45:17Z</time>
      </trkpt>
      <trkpt lat="59.9768379" lon="17.7393087">
        <ele>36.6675</ele>
        <time>2013-05-13T18:45:18Z</time>
      </trkpt>
      <trkpt lat="59.9768459" lon="17.7392994">
        <ele>37.1481</ele>
        <time>2013-05-13T18:45:19Z</time>
      </trkpt>
      <trkpt lat="59.9768599" lon="17.7392958">
        <ele>37.6287</ele>
        <time>2013-05-13T18:45:20Z</time>
      </trkpt>
      <trkpt lat="59.9768696" lon="17.7392902">
        <ele>38.5901</ele>
        <time>2013-05-13T18:45:21Z</time>
      </trkpt>
      <trkpt lat="59.9768818" lon="17.7392909">
        <ele>38.5901</ele>
        <time>2013-05-13T18:45:22Z</time>
      </trkpt>
      <trkpt lat="59.9768954" lon="17.7392914">
        <ele>38.5901</ele>
        <time>2013-05-13T18:45:23Z</time>
      </trkpt>
      <trkpt lat="59.9769107" lon="17.7392828">
        <ele>39.0707</ele>
        <time>2013-05-13T18:45:24Z</time>
      </trkpt>
      <trkpt lat="59.976925" lon="17.739278">
        <ele>38.5901</ele>
        <time>2013-05-13T18:45:25Z</time>
      </trkpt>
      <trkpt lat="59.97694" lon="17.7392759">
        <ele>38.5901</ele>
        <time>2013-05-13T18:45:26Z</time>
      </trkpt>
      <trkpt lat="59.976953" lon="17.7392699">
        <ele>38.5901</ele>
        <time>2013-05-13T18:45:27Z</time>
      </trkpt>
      <trkpt lat="59.976963" lon="17.739265">
        <ele>38.5901</ele>
        <time>2013-05-13T18:45:28Z</time>
      </trkpt>
      <trkpt lat="59.9769712" lon="17.7392564">
        <ele>37.6287</ele>
        <time>2013-05-13T18:45:29Z</time>
      </trkpt>
      <trkpt lat="59.9769814" lon="17.7392374">
        <ele>37.1481</ele>
        <time>2013-05-13T18:45:30Z</time>
      </trkpt>
      <trkpt lat="59.9769935" lon="17.7392287">
        <ele>37.1481</ele>
        <time>2013-05-13T18:45:31Z</time>
      </trkpt>
      <trkpt lat="59.9770092" lon="17.7392168">
        <ele>37.1481</ele>
        <time>2013-05-13T18:45:32Z</time>
      </trkpt>
      <trkpt lat="59.9770239" lon="17.7392179">
        <ele>37.6287</ele>
        <time>2013-05-13T18:45:33Z</time>
      </trkpt>
      <trkpt lat="59.9770407" lon="17.7392194">
        <ele>38.1094</ele>
        <time>2013-05-13T18:45:34Z</time>
      </trkpt>
      <trkpt lat="59.9770546" lon="17.7392146">
        <ele>38.1094</ele>
        <time>2013-05-13T18:45:35Z</time>
      </trkpt>
      <trkpt lat="59.9770697" lon="17.739205">
        <ele>38.5901</ele>
        <time>2013-05-13T18:45:36Z</time>
      </trkpt>
      <trkpt lat="59.9770826" lon="17.7391927">
        <ele>37.6287</ele>
        <time>2013-05-13T18:45:37Z</time>
      </trkpt>
      <trkpt lat="59.9770978" lon="17.7391799">
        <ele>38.1094</ele>
        <time>2013-05-13T18:45:38Z</time>
      </trkpt>
      <trkpt lat="59.9771097" lon="17.7391571">
        <ele>38.1094</ele>
        <time>2013-05-13T18:45:39Z</time>
      </trkpt>
      <trkpt lat="59.9771235" lon="17.7391428">
        <ele>38.1094</ele>
        <time>2013-05-13T18:45:40Z</time>
      </trkpt>
      <trkpt lat="59.977135" lon="17.73913">
        <ele>38.1094</ele>
        <time>2013-05-13T18:45:41Z</time>
      </trkpt>
      <trkpt lat="59.9771469" lon="17.7391293">
        <ele>37.6287</ele>
        <time>2013-05-13T18:45:42Z</time>
      </trkpt>
      <trkpt lat="59.9771578" lon="17.7391234">
        <ele>38.1094</ele>
        <time>2013-05-13T18:45:43Z</time>
      </trkpt>
      <trkpt lat="59.9771686" lon="17.7391228">
        <ele>37.6287</ele>
        <time>2013-05-13T18:45:44Z</time>
      </trkpt>
      <trkpt lat="59.97718" lon="17.7391222">
        <ele>37.6287</ele>
        <time>2013-05-13T18:45:45Z</time>
      </trkpt>
      <trkpt lat="59.9771926" lon="17.7391177">
        <ele>37.6287</ele>
        <time>2013-05-13T18:45:46Z</time>
      </trkpt>
      <trkpt lat="59.9772044" lon="17.7391143">
        <ele>37.1481</ele>
        <time>2013-05-13T18:45:47Z</time>
      </trkpt>
      <trkpt lat="59.9772162" lon="17.7391124">
        <ele>37.1481</ele>
        <time>2013-05-13T18:45:48Z</time>
      </trkpt>
      <trkpt lat="59.9772265" lon="17.7391114">
        <ele>37.1481</ele>
        <time>2013-05-13T18:45:49Z</time>
      </trkpt>
      <trkpt lat="59.9772397" lon="17.7391019">
        <ele>37.1481</ele>
        <time>2013-05-13T18:45:50Z</time>
      </trkpt>
      <trkpt lat="59.9772516" lon="17.7390958">
        <ele>37.1481</ele>
        <time>2013-05-13T18:45:51Z</time>
      </trkpt>
      <trkpt lat="59.9772651" lon="17.7390873">
        <ele>37.1481</ele>
        <time>2013-05-13T18:45:52Z</time>
      </trkpt>
      <trkpt lat="59.9772763" lon="17.739085">
        <ele>37.1481</ele>
        <time>2013-05-13T18:45:53Z</time>
      </trkpt>
      <trkpt lat="59.9772891" lon="17.7390876">
        <ele>37.1481</ele>
        <time>2013-05-13T18:45:54Z</time>
      </trkpt>
      <trkpt lat="59.9773054" lon="17.7390756">
        <ele>37.6287</ele>
        <time>2013-05-13T18:45:55Z</time>
      </trkpt>
      <trkpt lat="59.9773141" lon="17.7390699">
        <ele>37.1481</ele>
        <time>2013-05-13T18:45:56Z</time>
      </trkpt>
      <trkpt lat="59.9773256" lon="17.7390651">
        <ele>37.1481</ele>
        <time>2013-05-13T18:45:57Z</time>
      </trkpt>
      <trkpt lat="59.9773306" lon="17.7390566">
        <ele>36.1868</ele>
        <time>2013-05-13T18:45:58Z</time>
      </trkpt>
      <trkpt lat="59.9773476" lon="17.7390476">
        <ele>36.1868</ele>
        <time>2013-05-13T18:45:59Z</time>
      </trkpt>
      <trkpt lat="59.9773561" lon="17.7390409">
        <ele>35.2255</ele>
        <time>2013-05-13T18:46:00Z</time>
      </trkpt>
      <trkpt lat="59.9773685" lon="17.7390311">
        <ele>35.7061</ele>
        <time>2013-05-13T18:46:01Z</time>
      </trkpt>
      <trkpt lat="59.9773863" lon="17.7390198">
        <ele>35.7061</ele>
        <time>2013-05-13T18:46:02Z</time>
      </trkpt>
      <trkpt lat="59.9774023" lon="17.7390131">
        <ele>36.1868</ele>
        <time>2013-05-13T18:46:03Z</time>
      </trkpt>
      <trkpt lat="59.9774158" lon="17.7390061">
        <ele>36.1868</ele>
        <time>2013-05-13T18:46:04Z</time>
      </trkpt>
      <trkpt lat="59.9774359" lon="17.7389972">
        <ele>37.1481</ele>
        <time>2013-05-13T18:46:05Z</time>
      </trkpt>
      <trkpt lat="59.9774513" lon="17.7389947">
        <ele>37.1481</ele>
        <time>2013-05-13T18:46:06Z</time>
      </trkpt>
      <trkpt lat="59.9774705" lon="17.7389855">
        <ele>38.1094</ele>
        <time>2013-05-13T18:46:07Z</time>
      </trkpt>
      <trkpt lat="59.9774851" lon="17.7389818">
        <ele>37.6287</ele>
        <time>2013-05-13T18:46:08Z</time>
      </trkpt>
      <trkpt lat="59.977501" lon="17.7389772">
        <ele>37.1481</ele>
        <time>2013-05-13T18:46:09Z</time>
      </trkpt>
      <trkpt lat="59.9775131" lon="17.7389751">
        <ele>37.6287</ele>
        <time>2013-05-13T18:46:10Z</time>
      </trkpt>
      <trkpt lat="59.9775295" lon="17.7389737">
        <ele>37.6287</ele>
        <time>2013-05-13T18:46:11Z</time>
      </trkpt>
      <trkpt lat="59.9775437" lon="17.7389683">
        <ele>37.6287</ele>
        <time>2013-05-13T18:46:12Z</time>
      </trkpt>
      <trkpt lat="59.977559" lon="17.7389632">
        <ele>36.6675</ele>
        <time>2013-05-13T18:46:13Z</time>
      </trkpt>
      <trkpt lat="59.9775767" lon="17.7389513">
        <ele>37.6287</ele>
        <time>2013-05-13T18:46:14Z</time>
      </trkpt>
      <trkpt lat="59.9775928" lon="17.7389423">
        <ele>37.1481</ele>
        <time>2013-05-13T18:46:15Z</time>
      </trkpt>
      <trkpt lat="59.97761" lon="17.7389421">
        <ele>37.6287</ele>
        <time>2013-05-13T18:46:16Z</time>
      </trkpt>
      <trkpt lat="59.977626" lon="17.7389425">
        <ele>37.1481</ele>
        <time>2013-05-13T18:46:17Z</time>
      </trkpt>
      <trkpt lat="59.9776447" lon="17.7389416">
        <ele>37.6287</ele>
        <time>2013-05-13T18:46:18Z</time>
      </trkpt>
      <trkpt lat="59.9776628" lon="17.7389425">
        <ele>37.6287</ele>
        <time>2013-05-13T18:46:19Z</time>
      </trkpt>
      <trkpt lat="59.9776819" lon="17.7389451">
        <ele>38.1094</ele>
        <time>2013-05-13T18:46:20Z</time>
      </trkpt>
      <trkpt lat="59.9776944" lon="17.7389428">
        <ele>38.1094</ele>
        <time>2013-05-13T18:46:21Z</time>
      </trkpt>
      <trkpt lat="59.9777058" lon="17.7389438">
        <ele>38.1094</ele>
        <time>2013-05-13T18:46:22Z</time>
      </trkpt>
      <trkpt lat="59.9777188" lon="17.7389464">
        <ele>38.5901</ele>
        <time>2013-05-13T18:46:23Z</time>
      </trkpt>
      <trkpt lat="59.977732" lon="17.7389503">
        <ele>38.5901</ele>
        <time>2013-05-13T18:46:24Z</time>
      </trkpt>
      <trkpt lat="59.9777441" lon="17.7389548">
        <ele>38.5901</ele>
        <time>2013-05-13T18:46:25Z</time>
      </trkpt>
      <trkpt lat="59.9777555" lon="17.7389604">
        <ele>38.5901</ele>
        <time>2013-05-13T18:46:26Z</time>
      </trkpt>
      <trkpt lat="59.977767" lon="17.7389668">
        <ele>38.5901</ele>
        <time>2013-05-13T18:46:27Z</time>
      </trkpt>
      <trkpt lat="59.9777774" lon="17.738971">
        <ele>38.1094</ele>
        <time>2013-05-13T18:46:28Z</time>
      </trkpt>
      <trkpt lat="59.9777881" lon="17.7389762">
        <ele>38.1094</ele>
        <time>2013-05-13T18:46:29Z</time>
      </trkpt>
      <trkpt lat="59.9778001" lon="17.7389823">
        <ele>38.1094</ele>
        <time>2013-05-13T18:46:30Z</time>
      </trkpt>
      <trkpt lat="59.9778119" lon="17.7389872">
        <ele>38.1094</ele>
        <time>2013-05-13T18:46:31Z</time>
      </trkpt>
      <trkpt lat="59.9778235" lon="17.7389938">
        <ele>37.6287</ele>
        <time>2013-05-13T18:46:32Z</time>
      </trkpt>
      <trkpt lat="59.9778332" lon="17.7390051">
        <ele>37.6287</ele>
        <time>2013-05-13T18:46:33Z</time>
      </trkpt>
      <trkpt lat="59.9778394" lon="17.7390112">
        <ele>38.1094</ele>
        <time>2013-05-13T18:46:34Z</time>
      </trkpt>
      <trkpt lat="59.9778472" lon="17.7390146">
        <ele>38.1094</ele>
        <time>2013-05-13T18:46:35Z</time>
      </trkpt>
      <trkpt lat="59.9778569" lon="17.7390166">
        <ele>38.1094</ele>
        <time>2013-05-13T18:46:36Z</time>
      </trkpt>
      <trkpt lat="59.9778705" lon="17.7390247">
        <ele>38.5901</ele>
        <time>2013-05-13T18:46:37Z</time>
      </trkpt>
      <trkpt lat="59.9778876" lon="17.7390347">
        <ele>39.0707</ele>
        <time>2013-05-13T18:46:38Z</time>
      </trkpt>
      <trkpt lat="59.9778996" lon="17.7390414">
        <ele>39.5513</ele>
        <time>2013-05-13T18:46:39Z</time>
      </trkpt>
      <trkpt lat="59.9779166" lon="17.7390501">
        <ele>39.5513</ele>
        <time>2013-05-13T18:46:40Z</time>
      </trkpt>
      <trkpt lat="59.9779352" lon="17.739059">
        <ele>40.0321</ele>
        <time>2013-05-13T18:46:41Z</time>
      </trkpt>
      <trkpt lat="59.9779498" lon="17.739064">
        <ele>40.5128</ele>
        <time>2013-05-13T18:46:42Z</time>
      </trkpt>
      <trkpt lat="59.9779633" lon="17.7390706">
        <ele>40.0321</ele>
        <time>2013-05-13T18:46:43Z</time>
      </trkpt>
      <trkpt lat="59.9779781" lon="17.739073">
        <ele>40.5128</ele>
        <time>2013-05-13T18:46:44Z</time>
      </trkpt>
      <trkpt lat="59.9779984" lon="17.7390839">
        <ele>40.5128</ele>
        <time>2013-05-13T18:46:45Z</time>
      </trkpt>
      <trkpt lat="59.9780131" lon="17.7390932">
        <ele>40.5128</ele>
        <time>2013-05-13T18:46:46Z</time>
      </trkpt>
      <trkpt lat="59.9780268" lon="17.7391022">
        <ele>40.9934</ele>
        <time>2013-05-13T18:46:47Z</time>
      </trkpt>
      <trkpt lat="59.9780378" lon="17.739108">
        <ele>40.5128</ele>
        <time>2013-05-13T18:46:48Z</time>
      </trkpt>
      <trkpt lat="59.9780556" lon="17.7391047">
        <ele>40.5128</ele>
        <time>2013-05-13T18:46:49Z</time>
      </trkpt>
      <trkpt lat="59.9780638" lon="17.7391174">
        <ele>39.5513</ele>
        <time>2013-05-13T18:46:50Z</time>
      </trkpt>
      <trkpt lat="59.9780783" lon="17.73913">
        <ele>40.0321</ele>
        <time>2013-05-13T18:46:51Z</time>
      </trkpt>
      <trkpt lat="59.9780906" lon="17.7391326">
        <ele>39.5513</ele>
        <time>2013-05-13T18:46:52Z</time>
      </trkpt>
      <trkpt lat="59.9781037" lon="17.7391347">
        <ele>39.0707</ele>
        <time>2013-05-13T18:46:53Z</time>
      </trkpt>
      <trkpt lat="59.9781129" lon="17.7391476">
        <ele>39.5513</ele>
        <time>2013-05-13T18:46:54Z</time>
      </trkpt>
      <trkpt lat="59.9781254" lon="17.7391524">
        <ele>39.0707</ele>
        <time>2013-05-13T18:46:55Z</time>
      </trkpt>
      <trkpt lat="59.9781402" lon="17.7391482">
        <ele>39.0707</ele>
        <time>2013-05-13T18:46:56Z</time>
      </trkpt>
      <trkpt lat="59.9781583" lon="17.7391548">
        <ele>40.5128</ele>
        <time>2013-05-13T18:46:57Z</time>
      </trkpt>
      <trkpt lat="59.9781675" lon="17.7391591">
        <ele>40.5128</ele>
        <time>2013-05-13T18:46:58Z</time>
      </trkpt>
      <trkpt lat="59.9781859" lon="17.7391647">
        <ele>41.9547</ele>
        <time>2013-05-13T18:46:59Z</time>
      </trkpt>
      <trkpt lat="59.978205" lon="17.7391746">
        <ele>43.3966</ele>
        <time>2013-05-13T18:47:00Z</time>
      </trkpt>
      <trkpt lat="59.9782272" lon="17.7391791">
        <ele>44.8386</ele>
        <time>2013-05-13T18:47:01Z</time>
      </trkpt>
      <trkpt lat="59.97824" lon="17.7391865">
        <ele>44.8386</ele>
        <time>2013-05-13T18:47:02Z</time>
      </trkpt>
      <trkpt lat="59.9782481" lon="17.739193">
        <ele>44.8386</ele>
        <time>2013-05-13T18:47:03Z</time>
      </trkpt>
      <trkpt lat="59.9782619" lon="17.7391952">
        <ele>45.3192</ele>
        <time>2013-05-13T18:47:04Z</time>
      </trkpt>
      <trkpt lat="59.9782818" lon="17.7391842">
        <ele>45.3192</ele>
        <time>2013-05-13T18:47:05Z</time>
      </trkpt>
      <trkpt lat="59.9783041" lon="17.7391796">
        <ele>45.7999</ele>
        <time>2013-05-13T18:47:06Z</time>
      </trkpt>
      <trkpt lat="59.978328" lon="17.7391827">
        <ele>47.2418</ele>
        <time>2013-05-13T18:47:07Z</time>
      </trkpt>
      <trkpt lat="59.9783492" lon="17.7391912">
        <ele>47.7225</ele>
        <time>2013-05-13T18:47:08Z</time>
      </trkpt>
      <trkpt lat="59.9783648" lon="17.7391963">
        <ele>47.2418</ele>
        <time>2013-05-13T18:47:09Z</time>
      </trkpt>
      <trkpt lat="59.9783778" lon="17.7391992">
        <ele>46.7612</ele>
        <time>2013-05-13T18:47:10Z</time>
      </trkpt>
      <trkpt lat="59.9783911" lon="17.7391985">
        <ele>46.2806</ele>
        <time>2013-05-13T18:47:11Z</time>
      </trkpt>
      <trkpt lat="59.9784028" lon="17.7392023">
        <ele>46.2806</ele>
        <time>2013-05-13T18:47:12Z</time>
      </trkpt>
      <trkpt lat="59.9784132" lon="17.7392036">
        <ele>45.7999</ele>
        <time>2013-05-13T18:47:13Z</time>
      </trkpt>
      <trkpt lat="59.978431" lon="17.7392049">
        <ele>46.2806</ele>
        <time>2013-05-13T18:47:14Z</time>
      </trkpt>
      <trkpt lat="59.9784414" lon="17.7392066">
        <ele>45.7999</ele>
        <time>2013-05-13T18:47:15Z</time>
      </trkpt>
      <trkpt lat="59.9784539" lon="17.7392097">
        <ele>45.3192</ele>
        <time>2013-05-13T18:47:16Z</time>
      </trkpt>
      <trkpt lat="59.9784688" lon="17.7392088">
        <ele>44.358</ele>
        <time>2013-05-13T18:47:17Z</time>
      </trkpt>
      <trkpt lat="59.978488" lon="17.7392149">
        <ele>44.8386</ele>
        <time>2013-05-13T18:47:18Z</time>
      </trkpt>
      <trkpt lat="59.9785023" lon="17.7392174">
        <ele>44.8386</ele>
        <time>2013-05-13T18:47:19Z</time>
      </trkpt>
      <trkpt lat="59.9785134" lon="17.7392218">
        <ele>44.8386</ele>
        <time>2013-05-13T18:47:20Z</time>
      </trkpt>
      <trkpt lat="59.9785205" lon="17.7392212">
        <ele>44.358</ele>
        <time>2013-05-13T18:47:21Z</time>
      </trkpt>
      <trkpt lat="59.9785304" lon="17.7392199">
        <ele>44.358</ele>
        <time>2013-05-13T18:47:22Z</time>
      </trkpt>
      <trkpt lat="59.9785419" lon="17.7392148">
        <ele>43.3966</ele>
        <time>2013-05-13T18:47:23Z</time>
      </trkpt>
      <trkpt lat="59.9785551" lon="17.7392089">
        <ele>43.3966</ele>
        <time>2013-05-13T18:47:24Z</time>
      </trkpt>
      <trkpt lat="59.9785667" lon="17.739201">
        <ele>42.916</ele>
        <time>2013-05-13T18:47:25Z</time>
      </trkpt>
      <trkpt lat="59.9785758" lon="17.7392054">
        <ele>42.916</ele>
        <time>2013-05-13T18:47:26Z</time>
      </trkpt>
      <trkpt lat="59.9785872" lon="17.7392096">
        <ele>42.4354</ele>
        <time>2013-05-13T18:47:27Z</time>
      </trkpt>
      <trkpt lat="59.9785978" lon="17.7392127">
        <ele>42.4354</ele>
        <time>2013-05-13T18:47:28Z</time>
      </trkpt>
      <trkpt lat="59.9786087" lon="17.7392092">
        <ele>41.9547</ele>
        <time>2013-05-13T18:47:29Z</time>
      </trkpt>
      <trkpt lat="59.9786217" lon="17.7392049">
        <ele>42.4354</ele>
        <time>2013-05-13T18:47:30Z</time>
      </trkpt>
      <trkpt lat="59.9786346" lon="17.739216">
        <ele>42.916</ele>
        <time>2013-05-13T18:47:31Z</time>
      </trkpt>
      <trkpt lat="59.9786393" lon="17.7392253">
        <ele>43.3966</ele>
        <time>2013-05-13T18:47:32Z</time>
      </trkpt>
      <trkpt lat="59.9786445" lon="17.7392347">
        <ele>42.916</ele>
        <time>2013-05-13T18:47:33Z</time>
      </trkpt>
      <trkpt lat="59.9786563" lon="17.7392493">
        <ele>42.916</ele>
        <time>2013-05-13T18:47:34Z</time>
      </trkpt>
      <trkpt lat="59.9786789" lon="17.7392508">
        <ele>44.358</ele>
        <time>2013-05-13T18:47:35Z</time>
      </trkpt>
      <trkpt lat="59.9786993" lon="17.739256">
        <ele>44.8386</ele>
        <time>2013-05-13T18:47:36Z</time>
      </trkpt>
      <trkpt lat="59.9787147" lon="17.7392559">
        <ele>43.8773</ele>
        <time>2013-05-13T18:47:37Z</time>
      </trkpt>
      <trkpt lat="59.9787264" lon="17.7392549">
        <ele>43.8773</ele>
        <time>2013-05-13T18:47:38Z</time>
      </trkpt>
      <trkpt lat="59.9787413" lon="17.7392491">
        <ele>43.3966</ele>
        <time>2013-05-13T18:47:39Z</time>
      </trkpt>
      <trkpt lat="59.978754" lon="17.7392418">
        <ele>43.8773</ele>
        <time>2013-05-13T18:47:40Z</time>
      </trkpt>
      <trkpt lat="59.9787681" lon="17.7392455">
        <ele>43.8773</ele>
        <time>2013-05-13T18:47:41Z</time>
      </trkpt>
      <trkpt lat="59.9787761" lon="17.7392554">
        <ele>44.358</ele>
        <time>2013-05-13T18:47:42Z</time>
      </trkpt>
      <trkpt lat="59.9787847" lon="17.739264">
        <ele>44.358</ele>
        <time>2013-05-13T18:47:43Z</time>
      </trkpt>
      <trkpt lat="59.9787983" lon="17.7392731">
        <ele>44.358</ele>
        <time>2013-05-13T18:47:44Z</time>
      </trkpt>
      <trkpt lat="59.9788147" lon="17.7392751">
        <ele>44.358</ele>
        <time>2013-05-13T18:47:45Z</time>
      </trkpt>
      <trkpt lat="59.9788321" lon="17.7392808">
        <ele>44.358</ele>
        <time>2013-05-13T18:47:46Z</time>
      </trkpt>
      <trkpt lat="59.9788459" lon="17.7392778">
        <ele>44.358</ele>
        <time>2013-05-13T18:47:47Z</time>
      </trkpt>
      <trkpt lat="59.9788587" lon="17.7392681">
        <ele>44.358</ele>
        <time>2013-05-13T18:47:48Z</time>
      </trkpt>
      <trkpt lat="59.9788751" lon="17.7392543">
        <ele>44.358</ele>
        <time>2013-05-13T18:47:49Z</time>
      </trkpt>
      <trkpt lat="59.9788914" lon="17.73925">
        <ele>44.358</ele>
        <time>2013-05-13T18:47:50Z</time>
      </trkpt>
      <trkpt lat="59.9789089" lon="17.7392462">
        <ele>44.358</ele>
        <time>2013-05-13T18:47:51Z</time>
      </trkpt>
      <trkpt lat="59.9789195" lon="17.7392381">
        <ele>43.8773</ele>
        <time>2013-05-13T18:47:52Z</time>
      </trkpt>
      <trkpt lat="59.9789307" lon="17.7392293">
        <ele>43.3966</ele>
        <time>2013-05-13T18:47:53Z</time>
      </trkpt>
      <trkpt lat="59.9789444" lon="17.7392269">
        <ele>42.916</ele>
        <time>2013-05-13T18:47:54Z</time>
      </trkpt>
      <trkpt lat="59.9789579" lon="17.73922">
        <ele>42.4354</ele>
        <time>2013-05-13T18:47:55Z</time>
      </trkpt>
      <trkpt lat="59.9789713" lon="17.7392139">
        <ele>41.9547</ele>
        <time>2013-05-13T18:47:56Z</time>
      </trkpt>
      <trkpt lat="59.9789866" lon="17.7392089">
        <ele>41.474</ele>
        <time>2013-05-13T18:47:57Z</time>
      </trkpt>
      <trkpt lat="59.9790012" lon="17.7392046">
        <ele>40.9934</ele>
        <time>2013-05-13T18:47:58Z</time>
      </trkpt>
      <trkpt lat="59.9790184" lon="17.7392098">
        <ele>41.474</ele>
        <time>2013-05-13T18:47:59Z</time>
      </trkpt>
      <trkpt lat="59.9790349" lon="17.7392088">
        <ele>41.474</ele>
        <time>2013-05-13T18:48:00Z</time>
      </trkpt>
      <trkpt lat="59.9790503" lon="17.7392025">
        <ele>41.474</ele>
        <time>2013-05-13T18:48:01Z</time>
      </trkpt>
      <trkpt lat="59.979066" lon="17.739198">
        <ele>41.474</ele>
        <time>2013-05-13T18:48:02Z</time>
      </trkpt>
      <trkpt lat="59.9790811" lon="17.7391943">
        <ele>41.9547</ele>
        <time>2013-05-13T18:48:03Z</time>
      </trkpt>
      <trkpt lat="59.9790965" lon="17.7391914">
        <ele>41.9547</ele>
        <time>2013-05-13T18:48:04Z</time>
      </trkpt>
      <trkpt lat="59.9791106" lon="17.7391887">
        <ele>42.4354</ele>
        <time>2013-05-13T18:48:05Z</time>
      </trkpt>
      <trkpt lat="59.9791229" lon="17.7391883">
        <ele>41.9547</ele>
        <time>2013-05-13T18:48:06Z</time>
      </trkpt>
      <trkpt lat="59.9791324" lon="17.7391861">
        <ele>41.9547</ele>
        <time>2013-05-13T18:48:07Z</time>
      </trkpt>
      <trkpt lat="59.9791427" lon="17.7391849">
        <ele>41.474</ele>
        <time>2013-05-13T18:48:08Z</time>
      </trkpt>
      <trkpt lat="59.9791555" lon="17.739185">
        <ele>41.474</ele>
        <time>2013-05-13T18:48:09Z</time>
      </trkpt>
      <trkpt lat="59.979167" lon="17.7391804">
        <ele>41.474</ele>
        <time>2013-05-13T18:48:10Z</time>
      </trkpt>
      <trkpt lat="59.9791768" lon="17.7391739">
        <ele>40.9934</ele>
        <time>2013-05-13T18:48:11Z</time>
      </trkpt>
      <trkpt lat="59.9791883" lon="17.7391689">
        <ele>40.9934</ele>
        <time>2013-05-13T18:48:12Z</time>
      </trkpt>
      <trkpt lat="59.9791987" lon="17.739164">
        <ele>40.9934</ele>
        <time>2013-05-13T18:48:13Z</time>
      </trkpt>
      <trkpt lat="59.9792101" lon="17.7391604">
        <ele>40.9934</ele>
        <time>2013-05-13T18:48:14Z</time>
      </trkpt>
      <trkpt lat="59.9792206" lon="17.7391531">
        <ele>40.9934</ele>
        <time>2013-05-13T18:48:15Z</time>
      </trkpt>
      <trkpt lat="59.9792335" lon="17.7391461">
        <ele>40.9934</ele>
        <time>2013-05-13T18:48:16Z</time>
      </trkpt>
      <trkpt lat="59.9792453" lon="17.739144">
        <ele>40.5128</ele>
        <time>2013-05-13T18:48:17Z</time>
      </trkpt>
      <trkpt lat="59.9792577" lon="17.7391409">
        <ele>40.5128</ele>
        <time>2013-05-13T18:48:18Z</time>
      </trkpt>
      <trkpt lat="59.9792686" lon="17.7391365">
        <ele>40.5128</ele>
        <time>2013-05-13T18:48:19Z</time>
      </trkpt>
      <trkpt lat="59.979281" lon="17.7391288">
        <ele>40.5128</ele>
        <time>2013-05-13T18:48:20Z</time>
      </trkpt>
      <trkpt lat="59.9793" lon="17.7391305">
        <ele>40.5128</ele>
        <time>2013-05-13T18:48:21Z</time>
      </trkpt>
      <trkpt lat="59.9793142" lon="17.7391272">
        <ele>40.5128</ele>
        <time>2013-05-13T18:48:22Z</time>
      </trkpt>
      <trkpt lat="59.9793236" lon="17.7391252">
        <ele>40.0321</ele>
        <time>2013-05-13T18:48:23Z</time>
      </trkpt>
      <trkpt lat="59.9793342" lon="17.739126">
        <ele>40.0321</ele>
        <time>2013-05-13T18:48:24Z</time>
      </trkpt>
      <trkpt lat="59.97935" lon="17.7391234">
        <ele>40.0321</ele>
        <time>2013-05-13T18:48:25Z</time>
      </trkpt>
      <trkpt lat="59.979354" lon="17.7391273">
        <ele>39.5513</ele>
        <time>2013-05-13T18:48:26Z</time>
      </trkpt>
      <trkpt lat="59.9793467" lon="17.7391263">
        <ele>39.0707</ele>
        <time>2013-05-13T18:48:27Z</time>
      </trkpt>
      <trkpt lat="59.9793368" lon="17.7391247">
        <ele>38.5901</ele>
        <time>2013-05-13T18:48:28Z</time>
      </trkpt>
      <trkpt lat="59.9793277" lon="17.7391254">
        <ele>38.5901</ele>
        <time>2013-05-13T18:48:29Z</time>
      </trkpt>
      <trkpt lat="59.9793159" lon="17.7391254">
        <ele>38.1094</ele>
        <time>2013-05-13T18:48:30Z</time>
      </trkpt>
      <trkpt lat="59.9793033" lon="17.7391275">
        <ele>37.6287</ele>
        <time>2013-05-13T18:48:31Z</time>
      </trkpt>
      <trkpt lat="59.9792941" lon="17.7391342">
        <ele>37.1481</ele>
        <time>2013-05-13T18:48:32Z</time>
      </trkpt>
      <trkpt lat="59.9792858" lon="17.7391362">
        <ele>37.1481</ele>
        <time>2013-05-13T18:48:33Z</time>
      </trkpt>
      <trkpt lat="59.9792757" lon="17.7391436">
        <ele>37.1481</ele>
        <time>2013-05-13T18:48:34Z</time>
      </trkpt>
      <trkpt lat="59.9792676" lon="17.7391493">
        <ele>36.6675</ele>
        <time>2013-05-13T18:48:35Z</time>
      </trkpt>
      <trkpt lat="59.9792597" lon="17.7391539">
        <ele>36.1868</ele>
        <time>2013-05-13T18:48:36Z</time>
      </trkpt>
      <trkpt lat="59.9792464" lon="17.739159">
        <ele>36.1868</ele>
        <time>2013-05-13T18:48:37Z</time>
      </trkpt>
      <trkpt lat="59.9792304" lon="17.7391661">
        <ele>35.7061</ele>
        <time>2013-05-13T18:48:38Z</time>
      </trkpt>
      <trkpt lat="59.9792153" lon="17.7391745">
        <ele>35.2255</ele>
        <time>2013-05-13T18:48:39Z</time>
      </trkpt>
      <trkpt lat="59.9792011" lon="17.7391829">
        <ele>35.2255</ele>
        <time>2013-05-13T18:48:40Z</time>
      </trkpt>
      <trkpt lat="59.9791841" lon="17.7391896">
        <ele>35.2255</ele>
        <time>2013-05-13T18:48:41Z</time>
      </trkpt>
      <trkpt lat="59.9791697" lon="17.7391963">
        <ele>35.2255</ele>
        <time>2013-05-13T18:48:42Z</time>
      </trkpt>
      <trkpt lat="59.9791565" lon="17.7392041">
        <ele>35.2255</ele>
        <time>2013-05-13T18:48:43Z</time>
      </trkpt>
      <trkpt lat="59.9791431" lon="17.7392102">
        <ele>35.2255</ele>
        <time>2013-05-13T18:48:44Z</time>
      </trkpt>
      <trkpt lat="59.9791301" lon="17.7392177">
        <ele>35.7061</ele>
        <time>2013-05-13T18:48:45Z</time>
      </trkpt>
      <trkpt lat="59.979118" lon="17.7392238">
        <ele>36.1868</ele>
        <time>2013-05-13T18:48:46Z</time>
      </trkpt>
      <trkpt lat="59.9791045" lon="17.7392304">
        <ele>36.1868</ele>
        <time>2013-05-13T18:48:47Z</time>
      </trkpt>
      <trkpt lat="59.9790935" lon="17.7392361">
        <ele>36.6675</ele>
        <time>2013-05-13T18:48:48Z</time>
      </trkpt>
      <trkpt lat="59.9790822" lon="17.7392405">
        <ele>36.1868</ele>
        <time>2013-05-13T18:48:49Z</time>
      </trkpt>
      <trkpt lat="59.9790687" lon="17.7392469">
        <ele>36.1868</ele>
        <time>2013-05-13T18:48:50Z</time>
      </trkpt>
      <trkpt lat="59.9790526" lon="17.7392533">
        <ele>36.1868</ele>
        <time>2013-05-13T18:48:51Z</time>
      </trkpt>
      <trkpt lat="59.9790345" lon="17.7392575">
        <ele>36.1868</ele>
        <time>2013-05-13T18:48:52Z</time>
      </trkpt>
      <trkpt lat="59.9790178" lon="17.7392626">
        <ele>36.1868</ele>
        <time>2013-05-13T18:48:53Z</time>
      </trkpt>
      <trkpt lat="59.9790064" lon="17.7392699">
        <ele>35.7061</ele>
        <time>2013-05-13T18:48:54Z</time>
      </trkpt>
      <trkpt lat="59.9789957" lon="17.7392786">
        <ele>35.2255</ele>
        <time>2013-05-13T18:48:55Z</time>
      </trkpt>
      <trkpt lat="59.9789842" lon="17.7392864">
        <ele>35.2255</ele>
        <time>2013-05-13T18:48:56Z</time>
      </trkpt>
      <trkpt lat="59.978973" lon="17.7392933">
        <ele>34.7449</ele>
        <time>2013-05-13T18:48:57Z</time>
      </trkpt>
      <trkpt lat="59.9789624" lon="17.7392978">
        <ele>34.7449</ele>
        <time>2013-05-13T18:48:58Z</time>
      </trkpt>
      <trkpt lat="59.9789501" lon="17.7393026">
        <ele>34.7449</ele>
        <time>2013-05-13T18:48:59Z</time>
      </trkpt>
      <trkpt lat="59.9789403" lon="17.7393092">
        <ele>34.7449</ele>
        <time>2013-05-13T18:49:00Z</time>
      </trkpt>
      <trkpt lat="59.9789326" lon="17.7393175">
        <ele>34.2642</ele>
        <time>2013-05-13T18:49:01Z</time>
      </trkpt>
      <trkpt lat="59.9789298" lon="17.7393289">
        <ele>34.2642</ele>
        <time>2013-05-13T18:49:02Z</time>
      </trkpt>
      <trkpt lat="59.9789299" lon="17.739345">
        <ele>33.7834</ele>
        <time>2013-05-13T18:49:03Z</time>
      </trkpt>
      <trkpt lat="59.9789201" lon="17.7393798">
        <ele>34.7449</ele>
        <time>2013-05-13T18:49:04Z</time>
      </trkpt>
      <trkpt lat="59.9789154" lon="17.7393978">
        <ele>34.7449</ele>
        <time>2013-05-13T18:49:05Z</time>
      </trkpt>
      <trkpt lat="59.978909" lon="17.7394165">
        <ele>34.7449</ele>
        <time>2013-05-13T18:49:06Z</time>
      </trkpt>
      <trkpt lat="59.9789051" lon="17.7394425">
        <ele>35.2255</ele>
        <time>2013-05-13T18:49:07Z</time>
      </trkpt>
      <trkpt lat="59.9789018" lon="17.7394641">
        <ele>35.2255</ele>
        <time>2013-05-13T18:49:08Z</time>
      </trkpt>
      <trkpt lat="59.9788998" lon="17.7394889">
        <ele>35.2255</ele>
        <time>2013-05-13T18:49:09Z</time>
      </trkpt>
      <trkpt lat="59.9788936" lon="17.7395074">
        <ele>35.2255</ele>
        <time>2013-05-13T18:49:10Z</time>
      </trkpt>
      <trkpt lat="59.9788872" lon="17.7395237">
        <ele>34.7449</ele>
        <time>2013-05-13T18:49:11Z</time>
      </trkpt>
      <trkpt lat="59.9788857" lon="17.7395527">
        <ele>35.2255</ele>
        <time>2013-05-13T18:49:12Z</time>
      </trkpt>
      <trkpt lat="59.9788822" lon="17.7395743">
        <ele>34.7449</ele>
        <time>2013-05-13T18:49:13Z</time>
      </trkpt>
      <trkpt lat="59.9788796" lon="17.7395909">
        <ele>34.2642</ele>
        <time>2013-05-13T18:49:14Z</time>
      </trkpt>
      <trkpt lat="59.9788753" lon="17.7396041">
        <ele>34.2642</ele>
        <time>2013-05-13T18:49:15Z</time>
      </trkpt>
      <trkpt lat="59.9788666" lon="17.7396184">
        <ele>34.2642</ele>
        <time>2013-05-13T18:49:16Z</time>
      </trkpt>
      <trkpt lat="59.9788608" lon="17.7396336">
        <ele>33.7834</ele>
        <time>2013-05-13T18:49:17Z</time>
      </trkpt>
      <trkpt lat="59.9788546" lon="17.7396544">
        <ele>34.2642</ele>
        <time>2013-05-13T18:49:18Z</time>
      </trkpt>
      <trkpt lat="59.9788532" lon="17.7396812">
        <ele>34.7449</ele>
        <time>2013-05-13T18:49:19Z</time>
      </trkpt>
      <trkpt lat="59.9788431" lon="17.7397235">
        <ele>35.7061</ele>
        <time>2013-05-13T18:49:20Z</time>
      </trkpt>
      <trkpt lat="59.9788395" lon="17.7397585">
        <ele>35.2255</ele>
        <time>2013-05-13T18:49:21Z</time>
      </trkpt>
      <trkpt lat="59.978833" lon="17.7397919">
        <ele>35.7061</ele>
        <time>2013-05-13T18:49:22Z</time>
      </trkpt>
      <trkpt lat="59.9788297" lon="17.7398121">
        <ele>36.1868</ele>
        <time>2013-05-13T18:49:23Z</time>
      </trkpt>
      <trkpt lat="59.9788338" lon="17.7398387">
        <ele>37.6287</ele>
        <time>2013-05-13T18:49:24Z</time>
      </trkpt>
      <trkpt lat="59.9788382" lon="17.7398711">
        <ele>38.5901</ele>
        <time>2013-05-13T18:49:25Z</time>
      </trkpt>
      <trkpt lat="59.9788398" lon="17.7398951">
        <ele>39.0707</ele>
        <time>2013-05-13T18:49:26Z</time>
      </trkpt>
      <trkpt lat="59.978834" lon="17.7399153">
        <ele>39.0707</ele>
        <time>2013-05-13T18:49:27Z</time>
      </trkpt>
      <trkpt lat="59.9788312" lon="17.7399153">
        <ele>40.0321</ele>
        <time>2013-05-13T18:49:28Z</time>
      </trkpt>
    </trkseg>
  </trk>
</gpx>